<?xml version="1.0" encoding="UTF-8" standalone="no" ?>
<gpx xmlns="http://www.topografix.com/GPX/1/1" xmlns:gpxtpx="http://www.garmin.com/xmlschemas/TrackPointExtension/v1" creator="OruxMaps v.7.4.22" version="1.1" xmlns:xsi="http://www.w3.org/2001/XMLSchema-instance" xsi:schemaLocation="http://www.topografix.com/GPX/1/1 http://www.topografix.com/GPX/1/1/gpx.xsd">
<metadata>
<name><![CDATA[2022-01-22 14:24]]></name>
<link href="https://www.oruxmaps.com">
<text>OruxMaps</text>
</link>
<time>2022-01-22T13:24:40Z</time><bounds maxlat="49.1735650" maxlon="2.6932520" minlat="49.1238116" minlon="2.6559147"/>
</metadata>
<wpt lat="49.1251086" lon="2.6931714">
<ele>54.96</ele>
<time>2022-01-22T13:24:42Z</time>
<name><![CDATA[0000226]]></name>
<sym>Waypoint</sym>
<type>Point de départ</type>
<extensions>
<om:oruxmapsextensions xmlns:om="http://www.oruxmaps.com/oruxmapsextensions/1/0">
<om:ext type="ICON" subtype="0">38</om:ext>
</om:oruxmapsextensions>
</extensions>
</wpt>
<wpt lat="49.1252427" lon="2.6932243">
<ele>76.25</ele>
<time>2022-01-22T15:47:33Z</time>
<name><![CDATA[0000227]]></name>
<desc><![CDATA[<p><br /><h3>Nom: Segment: 1</h3><br />Heure de départ: 14:24 22 janv. 2022<br/>Heure d'arrivée: 16:47 22 janv. 2022<br/>Distance: 18,4km (02:22)<br/>Temps déplacement: 01:27<br/>Vitesse moyenne: 7,77 km/h<br/>Vitesse moyenne mouv.: 12,55 km/h<br/>Vitesse Max.: 28,76 km/h<br/>Altitude minimale: 54 m<br/>Altitude maximale: 117 m<br/>Vitesse de montée: 207,2 m/h<br/>Vitesse de descente: -467,5 m/h<br/>Gain d'altitude: 342 m<br/>Perte d'altitude: -321 m<br/>Temps de montée: 01:39<br/>Temps de descente: 00:41<br/></p>]]></desc>
<sym>Waypoint</sym>
<type>Point d'arrivée</type>
<extensions>
<om:oruxmapsextensions xmlns:om="http://www.oruxmaps.com/oruxmapsextensions/1/0">
<om:ext type="ICON" subtype="0">15</om:ext>
</om:oruxmapsextensions>
</extensions>
</wpt>
<trk>
<name><![CDATA[2022-01-22 14:24]]></name>
<desc><![CDATA[<p>Heure de départ: 14:24 22 janv. 2022<br/>Heure d'arrivée: 16:47 22 janv. 2022<br/>Distance: 18,4 km (02:22)<br/>Temps déplacement: 01:27<br/>Vitesse moyenne: 7,77 km/h<br/>Vitesse moyenne mouv.: 12,6 km/h<br/>Vitesse Max.: 28,76 km/h<br/>Altitude minimale: 54 m<br/>Altitude maximale: 117 m<br/>Vitesse de montée: 171,9 m/h<br/>Vitesse de descente: -377,5 m/h<br/>Gain d'altitude: 278 m<br/>Perte d'altitude: -269 m<br/>Temps de montée: 01:37<br/>Temps de descente: 00:42<br/></p><hr align="center" width="480" style="height: 2px; width: 517px"/>]]></desc>
<type>Indéfini</type>
<extensions>
<om:oruxmapsextensions xmlns:om="http://www.oruxmaps.com/oruxmapsextensions/1/0">
<om:ext type="TYPE" subtype="0">0</om:ext>
<om:ext type="DIFFICULTY">0</om:ext>
</om:oruxmapsextensions>
</extensions>
<trkseg>
<trkpt lat="49.1251086" lon="2.6931714">
<ele>54.96</ele>
<time>2022-01-22T13:24:43Z</time>
</trkpt>
<trkpt lat="49.1252967" lon="2.6932090">
<ele>80.11</ele>
<time>2022-01-22T13:25:09Z</time>
</trkpt>
<trkpt lat="49.1254772" lon="2.6932520">
<ele>79.78</ele>
<time>2022-01-22T13:25:20Z</time>
</trkpt>
<trkpt lat="49.1256176" lon="2.6930416">
<ele>77.02</ele>
<time>2022-01-22T13:25:48Z</time>
</trkpt>
<trkpt lat="49.1255977" lon="2.6927519">
<ele>76.40</ele>
<time>2022-01-22T13:25:55Z</time>
</trkpt>
<trkpt lat="49.1256317" lon="2.6924536">
<ele>75.61</ele>
<time>2022-01-22T13:26:01Z</time>
</trkpt>
<trkpt lat="49.1257450" lon="2.6922335">
<ele>75.22</ele>
<time>2022-01-22T13:26:05Z</time>
</trkpt>
<trkpt lat="49.1258960" lon="2.6920149">
<ele>74.57</ele>
<time>2022-01-22T13:26:10Z</time>
</trkpt>
<trkpt lat="49.1260350" lon="2.6918370">
<ele>74.65</ele>
<time>2022-01-22T13:26:15Z</time>
</trkpt>
<trkpt lat="49.1262004" lon="2.6916328">
<ele>75.97</ele>
<time>2022-01-22T13:26:21Z</time>
</trkpt>
<trkpt lat="49.1263485" lon="2.6914624">
<ele>75.71</ele>
<time>2022-01-22T13:26:27Z</time>
</trkpt>
<trkpt lat="49.1264932" lon="2.6912313">
<ele>77.05</ele>
<time>2022-01-22T13:26:33Z</time>
</trkpt>
<trkpt lat="49.1265813" lon="2.6909422">
<ele>76.83</ele>
<time>2022-01-22T13:26:39Z</time>
</trkpt>
<trkpt lat="49.1266970" lon="2.6907174">
<ele>77.42</ele>
<time>2022-01-22T13:26:44Z</time>
</trkpt>
<trkpt lat="49.1268655" lon="2.6905387">
<ele>78.56</ele>
<time>2022-01-22T13:26:50Z</time>
</trkpt>
<trkpt lat="49.1270541" lon="2.6904030">
<ele>79.60</ele>
<time>2022-01-22T13:26:56Z</time>
</trkpt>
<trkpt lat="49.1272451" lon="2.6902627">
<ele>79.58</ele>
<time>2022-01-22T13:27:02Z</time>
</trkpt>
<trkpt lat="49.1274035" lon="2.6901088">
<ele>79.66</ele>
<time>2022-01-22T13:27:08Z</time>
</trkpt>
<trkpt lat="49.1273888" lon="2.6898124">
<ele>81.74</ele>
<time>2022-01-22T13:27:14Z</time>
</trkpt>
<trkpt lat="49.1273889" lon="2.6895334">
<ele>81.86</ele>
<time>2022-01-22T13:27:21Z</time>
</trkpt>
<trkpt lat="49.1275090" lon="2.6892892">
<ele>81.79</ele>
<time>2022-01-22T13:27:30Z</time>
</trkpt>
<trkpt lat="49.1275657" lon="2.6890230">
<ele>82.97</ele>
<time>2022-01-22T13:27:38Z</time>
</trkpt>
<trkpt lat="49.1276362" lon="2.6887507">
<ele>84.21</ele>
<time>2022-01-22T13:27:47Z</time>
</trkpt>
<trkpt lat="49.1276977" lon="2.6884616">
<ele>85.44</ele>
<time>2022-01-22T13:27:57Z</time>
</trkpt>
<trkpt lat="49.1277852" lon="2.6882037">
<ele>87.45</ele>
<time>2022-01-22T13:28:06Z</time>
</trkpt>
<trkpt lat="49.1278534" lon="2.6879457">
<ele>90.05</ele>
<time>2022-01-22T13:28:19Z</time>
</trkpt>
<trkpt lat="49.1279223" lon="2.6876661">
<ele>91.82</ele>
<time>2022-01-22T13:28:29Z</time>
</trkpt>
<trkpt lat="49.1280010" lon="2.6874040">
<ele>92.34</ele>
<time>2022-01-22T13:28:38Z</time>
</trkpt>
<trkpt lat="49.1280497" lon="2.6871273">
<ele>92.73</ele>
<time>2022-01-22T13:28:47Z</time>
</trkpt>
<trkpt lat="49.1280952" lon="2.6868498">
<ele>94.70</ele>
<time>2022-01-22T13:28:57Z</time>
</trkpt>
<trkpt lat="49.1281618" lon="2.6865759">
<ele>94.02</ele>
<time>2022-01-22T13:29:05Z</time>
</trkpt>
<trkpt lat="49.1282174" lon="2.6863136">
<ele>95.22</ele>
<time>2022-01-22T13:29:12Z</time>
</trkpt>
<trkpt lat="49.1282605" lon="2.6860295">
<ele>97.31</ele>
<time>2022-01-22T13:29:20Z</time>
</trkpt>
<trkpt lat="49.1282152" lon="2.6857480">
<ele>96.34</ele>
<time>2022-01-22T13:29:29Z</time>
</trkpt>
<trkpt lat="49.1281186" lon="2.6855095">
<ele>97.43</ele>
<time>2022-01-22T13:29:33Z</time>
</trkpt>
<trkpt lat="49.1280554" lon="2.6852443">
<ele>97.55</ele>
<time>2022-01-22T13:29:37Z</time>
</trkpt>
<trkpt lat="49.1280442" lon="2.6849345">
<ele>101.15</ele>
<time>2022-01-22T13:29:43Z</time>
</trkpt>
<trkpt lat="49.1280253" lon="2.6846082">
<ele>98.95</ele>
<time>2022-01-22T13:29:49Z</time>
</trkpt>
<trkpt lat="49.1280267" lon="2.6842929">
<ele>98.10</ele>
<time>2022-01-22T13:29:56Z</time>
</trkpt>
<trkpt lat="49.1280431" lon="2.6839728">
<ele>100.76</ele>
<time>2022-01-22T13:30:03Z</time>
</trkpt>
<trkpt lat="49.1280528" lon="2.6836981">
<ele>102.66</ele>
<time>2022-01-22T13:30:09Z</time>
</trkpt>
<trkpt lat="49.1280525" lon="2.6833254">
<ele>100.66</ele>
<time>2022-01-22T13:30:15Z</time>
</trkpt>
<trkpt lat="49.1280874" lon="2.6830261">
<ele>98.54</ele>
<time>2022-01-22T13:30:23Z</time>
</trkpt>
<trkpt lat="49.1281106" lon="2.6827184">
<ele>100.67</ele>
<time>2022-01-22T13:30:30Z</time>
</trkpt>
<trkpt lat="49.1281190" lon="2.6824415">
<ele>99.88</ele>
<time>2022-01-22T13:30:36Z</time>
</trkpt>
<trkpt lat="49.1281502" lon="2.6821698">
<ele>99.06</ele>
<time>2022-01-22T13:30:42Z</time>
</trkpt>
<trkpt lat="49.1281995" lon="2.6818827">
<ele>97.86</ele>
<time>2022-01-22T13:30:47Z</time>
</trkpt>
<trkpt lat="49.1282676" lon="2.6815500">
<ele>99.73</ele>
<time>2022-01-22T13:30:53Z</time>
</trkpt>
<trkpt lat="49.1282916" lon="2.6812547">
<ele>101.09</ele>
<time>2022-01-22T13:30:57Z</time>
</trkpt>
<trkpt lat="49.1283348" lon="2.6809279">
<ele>99.64</ele>
<time>2022-01-22T13:31:02Z</time>
</trkpt>
<trkpt lat="49.1283124" lon="2.6806527">
<ele>97.48</ele>
<time>2022-01-22T13:31:09Z</time>
</trkpt>
<trkpt lat="49.1281878" lon="2.6804390">
<ele>94.18</ele>
<time>2022-01-22T13:31:16Z</time>
</trkpt>
<trkpt lat="49.1281043" lon="2.6801496">
<ele>92.88</ele>
<time>2022-01-22T13:31:24Z</time>
</trkpt>
<trkpt lat="49.1279847" lon="2.6799283">
<ele>92.72</ele>
<time>2022-01-22T13:31:31Z</time>
</trkpt>
<trkpt lat="49.1279055" lon="2.6796501">
<ele>93.47</ele>
<time>2022-01-22T13:31:39Z</time>
</trkpt>
<trkpt lat="49.1278359" lon="2.6793742">
<ele>94.32</ele>
<time>2022-01-22T13:31:47Z</time>
</trkpt>
<trkpt lat="49.1277849" lon="2.6791072">
<ele>95.29</ele>
<time>2022-01-22T13:31:55Z</time>
</trkpt>
<trkpt lat="49.1277229" lon="2.6788380">
<ele>96.88</ele>
<time>2022-01-22T13:32:04Z</time>
</trkpt>
<trkpt lat="49.1276655" lon="2.6785768">
<ele>99.01</ele>
<time>2022-01-22T13:32:13Z</time>
</trkpt>
<trkpt lat="49.1276538" lon="2.6782832">
<ele>99.87</ele>
<time>2022-01-22T13:32:21Z</time>
</trkpt>
<trkpt lat="49.1276527" lon="2.6780022">
<ele>102.79</ele>
<time>2022-01-22T13:32:29Z</time>
</trkpt>
<trkpt lat="49.1276793" lon="2.6776928">
<ele>100.63</ele>
<time>2022-01-22T13:32:36Z</time>
</trkpt>
<trkpt lat="49.1276675" lon="2.6773966">
<ele>99.92</ele>
<time>2022-01-22T13:32:43Z</time>
</trkpt>
<trkpt lat="49.1276740" lon="2.6770917">
<ele>100.88</ele>
<time>2022-01-22T13:32:51Z</time>
</trkpt>
<trkpt lat="49.1277053" lon="2.6768191">
<ele>101.37</ele>
<time>2022-01-22T13:32:58Z</time>
</trkpt>
<trkpt lat="49.1277373" lon="2.6765223">
<ele>101.58</ele>
<time>2022-01-22T13:33:06Z</time>
</trkpt>
<trkpt lat="49.1277308" lon="2.6762267">
<ele>104.78</ele>
<time>2022-01-22T13:33:14Z</time>
</trkpt>
<trkpt lat="49.1277647" lon="2.6759227">
<ele>106.65</ele>
<time>2022-01-22T13:33:22Z</time>
</trkpt>
<trkpt lat="49.1277955" lon="2.6756392">
<ele>108.72</ele>
<time>2022-01-22T13:33:29Z</time>
</trkpt>
<trkpt lat="49.1278451" lon="2.6753370">
<ele>106.33</ele>
<time>2022-01-22T13:33:36Z</time>
</trkpt>
<trkpt lat="49.1278323" lon="2.6750419">
<ele>101.76</ele>
<time>2022-01-22T13:33:43Z</time>
</trkpt>
<trkpt lat="49.1278600" lon="2.6747576">
<ele>102.95</ele>
<time>2022-01-22T13:33:50Z</time>
</trkpt>
<trkpt lat="49.1277631" lon="2.6745259">
<ele>105.06</ele>
<time>2022-01-22T13:33:59Z</time>
</trkpt>
<trkpt lat="49.1277688" lon="2.6742446">
<ele>102.46</ele>
<time>2022-01-22T13:34:07Z</time>
</trkpt>
<trkpt lat="49.1277252" lon="2.6739657">
<ele>103.77</ele>
<time>2022-01-22T13:34:15Z</time>
</trkpt>
<trkpt lat="49.1277751" lon="2.6736927">
<ele>105.39</ele>
<time>2022-01-22T13:34:22Z</time>
</trkpt>
<trkpt lat="49.1278345" lon="2.6733952">
<ele>107.74</ele>
<time>2022-01-22T13:34:30Z</time>
</trkpt>
<trkpt lat="49.1278885" lon="2.6730954">
<ele>107.19</ele>
<time>2022-01-22T13:34:38Z</time>
</trkpt>
<trkpt lat="49.1279685" lon="2.6728254">
<ele>108.80</ele>
<time>2022-01-22T13:34:45Z</time>
</trkpt>
<trkpt lat="49.1280495" lon="2.6725541">
<ele>110.91</ele>
<time>2022-01-22T13:34:52Z</time>
</trkpt>
<trkpt lat="49.1281014" lon="2.6722792">
<ele>110.77</ele>
<time>2022-01-22T13:34:59Z</time>
</trkpt>
<trkpt lat="49.1280176" lon="2.6720102">
<ele>111.08</ele>
<time>2022-01-22T13:35:07Z</time>
</trkpt>
<trkpt lat="49.1278659" lon="2.6718345">
<ele>110.97</ele>
<time>2022-01-22T13:35:14Z</time>
</trkpt>
<trkpt lat="49.1277211" lon="2.6716622">
<ele>111.03</ele>
<time>2022-01-22T13:35:21Z</time>
</trkpt>
<trkpt lat="49.1275651" lon="2.6714961">
<ele>111.15</ele>
<time>2022-01-22T13:35:28Z</time>
</trkpt>
<trkpt lat="49.1274023" lon="2.6713423">
<ele>110.38</ele>
<time>2022-01-22T13:35:35Z</time>
</trkpt>
<trkpt lat="49.1272337" lon="2.6711876">
<ele>110.65</ele>
<time>2022-01-22T13:37:24Z</time>
</trkpt>
<trkpt lat="49.1270815" lon="2.6710303">
<ele>109.55</ele>
<time>2022-01-22T13:37:32Z</time>
</trkpt>
<trkpt lat="49.1268867" lon="2.6708865">
<ele>110.67</ele>
<time>2022-01-22T13:37:40Z</time>
</trkpt>
<trkpt lat="49.1267241" lon="2.6707412">
<ele>108.71</ele>
<time>2022-01-22T13:37:47Z</time>
</trkpt>
<trkpt lat="49.1265761" lon="2.6705651">
<ele>111.46</ele>
<time>2022-01-22T13:37:55Z</time>
</trkpt>
<trkpt lat="49.1264130" lon="2.6704095">
<ele>108.43</ele>
<time>2022-01-22T13:38:03Z</time>
</trkpt>
<trkpt lat="49.1262435" lon="2.6702699">
<ele>107.82</ele>
<time>2022-01-22T13:38:10Z</time>
</trkpt>
<trkpt lat="49.1260916" lon="2.6701025">
<ele>106.79</ele>
<time>2022-01-22T13:38:17Z</time>
</trkpt>
<trkpt lat="49.1259410" lon="2.6699441">
<ele>103.86</ele>
<time>2022-01-22T13:38:26Z</time>
</trkpt>
<trkpt lat="49.1257725" lon="2.6697877">
<ele>99.33</ele>
<time>2022-01-22T13:38:37Z</time>
</trkpt>
<trkpt lat="49.1256288" lon="2.6696197">
<ele>98.61</ele>
<time>2022-01-22T13:38:45Z</time>
</trkpt>
<trkpt lat="49.1255828" lon="2.6693135">
<ele>99.93</ele>
<time>2022-01-22T13:38:53Z</time>
</trkpt>
<trkpt lat="49.1255237" lon="2.6690456">
<ele>101.44</ele>
<time>2022-01-22T13:39:02Z</time>
</trkpt>
<trkpt lat="49.1254817" lon="2.6687439">
<ele>104.20</ele>
<time>2022-01-22T13:39:10Z</time>
</trkpt>
<trkpt lat="49.1254440" lon="2.6684395">
<ele>105.15</ele>
<time>2022-01-22T13:39:17Z</time>
</trkpt>
<trkpt lat="49.1253904" lon="2.6681552">
<ele>107.82</ele>
<time>2022-01-22T13:39:25Z</time>
</trkpt>
<trkpt lat="49.1253689" lon="2.6678778">
<ele>103.87</ele>
<time>2022-01-22T13:39:34Z</time>
</trkpt>
<trkpt lat="49.1253297" lon="2.6676028">
<ele>103.18</ele>
<time>2022-01-22T13:39:44Z</time>
</trkpt>
<trkpt lat="49.1252973" lon="2.6672900">
<ele>107.40</ele>
<time>2022-01-22T13:39:52Z</time>
</trkpt>
<trkpt lat="49.1252373" lon="2.6670116">
<ele>110.13</ele>
<time>2022-01-22T13:40:00Z</time>
</trkpt>
<trkpt lat="49.1252009" lon="2.6667283">
<ele>108.29</ele>
<time>2022-01-22T13:40:09Z</time>
</trkpt>
<trkpt lat="49.1251577" lon="2.6664583">
<ele>107.91</ele>
<time>2022-01-22T13:40:18Z</time>
</trkpt>
<trkpt lat="49.1251483" lon="2.6661771">
<ele>109.14</ele>
<time>2022-01-22T13:40:27Z</time>
</trkpt>
<trkpt lat="49.1251262" lon="2.6658869">
<ele>105.86</ele>
<time>2022-01-22T13:40:35Z</time>
</trkpt>
<trkpt lat="49.1250820" lon="2.6656142">
<ele>108.26</ele>
<time>2022-01-22T13:40:42Z</time>
</trkpt>
<trkpt lat="49.1250494" lon="2.6653356">
<ele>107.97</ele>
<time>2022-01-22T13:40:49Z</time>
</trkpt>
<trkpt lat="49.1249831" lon="2.6650363">
<ele>111.62</ele>
<time>2022-01-22T13:40:55Z</time>
</trkpt>
<trkpt lat="49.1249656" lon="2.6647164">
<ele>108.33</ele>
<time>2022-01-22T13:41:02Z</time>
</trkpt>
<trkpt lat="49.1249027" lon="2.6644311">
<ele>107.92</ele>
<time>2022-01-22T13:41:09Z</time>
</trkpt>
<trkpt lat="49.1248808" lon="2.6641171">
<ele>109.88</ele>
<time>2022-01-22T13:41:16Z</time>
</trkpt>
<trkpt lat="49.1248217" lon="2.6638007">
<ele>110.99</ele>
<time>2022-01-22T13:41:22Z</time>
</trkpt>
<trkpt lat="49.1248246" lon="2.6634829">
<ele>113.01</ele>
<time>2022-01-22T13:41:30Z</time>
</trkpt>
<trkpt lat="49.1247855" lon="2.6631858">
<ele>112.01</ele>
<time>2022-01-22T13:41:36Z</time>
</trkpt>
<trkpt lat="49.1247709" lon="2.6628435">
<ele>112.05</ele>
<time>2022-01-22T13:41:43Z</time>
</trkpt>
<trkpt lat="49.1247176" lon="2.6625734">
<ele>111.93</ele>
<time>2022-01-22T13:41:47Z</time>
</trkpt>
<trkpt lat="49.1246784" lon="2.6622494">
<ele>112.38</ele>
<time>2022-01-22T13:41:53Z</time>
</trkpt>
<trkpt lat="49.1246095" lon="2.6619952">
<ele>112.08</ele>
<time>2022-01-22T13:41:57Z</time>
</trkpt>
<trkpt lat="49.1245862" lon="2.6615760">
<ele>110.12</ele>
<time>2022-01-22T13:42:03Z</time>
</trkpt>
<trkpt lat="49.1245445" lon="2.6612684">
<ele>108.69</ele>
<time>2022-01-22T13:42:08Z</time>
</trkpt>
<trkpt lat="49.1244898" lon="2.6609596">
<ele>108.11</ele>
<time>2022-01-22T13:42:14Z</time>
</trkpt>
<trkpt lat="49.1244390" lon="2.6606857">
<ele>109.29</ele>
<time>2022-01-22T13:42:23Z</time>
</trkpt>
<trkpt lat="49.1243730" lon="2.6603943">
<ele>106.38</ele>
<time>2022-01-22T13:42:34Z</time>
</trkpt>
<trkpt lat="49.1243304" lon="2.6600553">
<ele>107.44</ele>
<time>2022-01-22T13:42:40Z</time>
</trkpt>
<trkpt lat="49.1243119" lon="2.6597794">
<ele>107.43</ele>
<time>2022-01-22T13:42:45Z</time>
</trkpt>
<trkpt lat="49.1242929" lon="2.6594798">
<ele>107.17</ele>
<time>2022-01-22T13:42:52Z</time>
</trkpt>
<trkpt lat="49.1242526" lon="2.6591617">
<ele>107.79</ele>
<time>2022-01-22T13:42:58Z</time>
</trkpt>
<trkpt lat="49.1242020" lon="2.6588791">
<ele>107.22</ele>
<time>2022-01-22T13:43:05Z</time>
</trkpt>
<trkpt lat="49.1241353" lon="2.6586136">
<ele>107.97</ele>
<time>2022-01-22T13:43:14Z</time>
</trkpt>
<trkpt lat="49.1241772" lon="2.6583420">
<ele>108.35</ele>
<time>2022-01-22T13:43:21Z</time>
</trkpt>
<trkpt lat="49.1241150" lon="2.6580805">
<ele>111.39</ele>
<time>2022-01-22T13:43:28Z</time>
</trkpt>
<trkpt lat="49.1241078" lon="2.6577739">
<ele>114.04</ele>
<time>2022-01-22T13:43:37Z</time>
</trkpt>
<trkpt lat="49.1241063" lon="2.6574522">
<ele>114.77</ele>
<time>2022-01-22T13:43:45Z</time>
</trkpt>
<trkpt lat="49.1240226" lon="2.6571740">
<ele>111.43</ele>
<time>2022-01-22T13:43:49Z</time>
</trkpt>
<trkpt lat="49.1239883" lon="2.6568428">
<ele>112.67</ele>
<time>2022-01-22T13:43:55Z</time>
</trkpt>
<trkpt lat="49.1239065" lon="2.6565529">
<ele>109.15</ele>
<time>2022-01-22T13:44:00Z</time>
</trkpt>
<trkpt lat="49.1238487" lon="2.6562726">
<ele>111.39</ele>
<time>2022-01-22T13:44:06Z</time>
</trkpt>
<trkpt lat="49.1238116" lon="2.6559820">
<ele>109.18</ele>
<time>2022-01-22T13:44:14Z</time>
</trkpt>
<trkpt lat="49.1239945" lon="2.6559147">
<ele>108.85</ele>
<time>2022-01-22T13:44:23Z</time>
</trkpt>
<trkpt lat="49.1242040" lon="2.6559529">
<ele>107.14</ele>
<time>2022-01-22T13:44:29Z</time>
</trkpt>
<trkpt lat="49.1243970" lon="2.6559598">
<ele>105.83</ele>
<time>2022-01-22T13:44:34Z</time>
</trkpt>
<trkpt lat="49.1245970" lon="2.6559582">
<ele>107.58</ele>
<time>2022-01-22T13:44:39Z</time>
</trkpt>
<trkpt lat="49.1247985" lon="2.6559256">
<ele>108.99</ele>
<time>2022-01-22T13:44:44Z</time>
</trkpt>
<trkpt lat="49.1249956" lon="2.6559471">
<ele>108.79</ele>
<time>2022-01-22T13:44:49Z</time>
</trkpt>
<trkpt lat="49.1251751" lon="2.6559284">
<ele>109.85</ele>
<time>2022-01-22T13:44:53Z</time>
</trkpt>
<trkpt lat="49.1253856" lon="2.6559315">
<ele>111.41</ele>
<time>2022-01-22T13:44:58Z</time>
</trkpt>
<trkpt lat="49.1256003" lon="2.6559336">
<ele>111.39</ele>
<time>2022-01-22T13:45:03Z</time>
</trkpt>
<trkpt lat="49.1257946" lon="2.6559651">
<ele>110.72</ele>
<time>2022-01-22T13:45:08Z</time>
</trkpt>
<trkpt lat="49.1259909" lon="2.6559695">
<ele>110.81</ele>
<time>2022-01-22T13:45:13Z</time>
</trkpt>
<trkpt lat="49.1261801" lon="2.6559755">
<ele>110.18</ele>
<time>2022-01-22T13:45:18Z</time>
</trkpt>
<trkpt lat="49.1263736" lon="2.6559681">
<ele>108.83</ele>
<time>2022-01-22T13:45:23Z</time>
</trkpt>
<trkpt lat="49.1265878" lon="2.6559644">
<ele>107.71</ele>
<time>2022-01-22T13:45:28Z</time>
</trkpt>
<trkpt lat="49.1267984" lon="2.6559800">
<ele>106.90</ele>
<time>2022-01-22T13:45:33Z</time>
</trkpt>
<trkpt lat="49.1270111" lon="2.6559769">
<ele>106.55</ele>
<time>2022-01-22T13:45:38Z</time>
</trkpt>
<trkpt lat="49.1271941" lon="2.6559730">
<ele>106.00</ele>
<time>2022-01-22T13:45:42Z</time>
</trkpt>
<trkpt lat="49.1273742" lon="2.6559820">
<ele>105.58</ele>
<time>2022-01-22T13:45:46Z</time>
</trkpt>
<trkpt lat="49.1275865" lon="2.6559782">
<ele>105.27</ele>
<time>2022-01-22T13:45:51Z</time>
</trkpt>
<trkpt lat="49.1277795" lon="2.6559908">
<ele>105.34</ele>
<time>2022-01-22T13:45:57Z</time>
</trkpt>
<trkpt lat="49.1279863" lon="2.6559980">
<ele>105.35</ele>
<time>2022-01-22T13:46:01Z</time>
</trkpt>
<trkpt lat="49.1282034" lon="2.6560023">
<ele>104.83</ele>
<time>2022-01-22T13:46:06Z</time>
</trkpt>
<trkpt lat="49.1284147" lon="2.6560173">
<ele>105.16</ele>
<time>2022-01-22T13:46:11Z</time>
</trkpt>
<trkpt lat="49.1286314" lon="2.6560229">
<ele>105.60</ele>
<time>2022-01-22T13:46:16Z</time>
</trkpt>
<trkpt lat="49.1288528" lon="2.6560278">
<ele>106.16</ele>
<time>2022-01-22T13:46:21Z</time>
</trkpt>
<trkpt lat="49.1290693" lon="2.6560021">
<ele>108.74</ele>
<time>2022-01-22T13:46:26Z</time>
</trkpt>
<trkpt lat="49.1292637" lon="2.6560055">
<ele>109.51</ele>
<time>2022-01-22T13:46:33Z</time>
</trkpt>
<trkpt lat="49.1294846" lon="2.6560067">
<ele>110.89</ele>
<time>2022-01-22T13:46:39Z</time>
</trkpt>
<trkpt lat="49.1296839" lon="2.6559963">
<ele>109.86</ele>
<time>2022-01-22T13:46:44Z</time>
</trkpt>
<trkpt lat="49.1298655" lon="2.6559801">
<ele>109.87</ele>
<time>2022-01-22T13:46:49Z</time>
</trkpt>
<trkpt lat="49.1300464" lon="2.6559996">
<ele>108.22</ele>
<time>2022-01-22T13:46:55Z</time>
</trkpt>
<trkpt lat="49.1302278" lon="2.6560245">
<ele>107.79</ele>
<time>2022-01-22T13:47:04Z</time>
</trkpt>
<trkpt lat="49.1304192" lon="2.6560451">
<ele>105.48</ele>
<time>2022-01-22T13:47:16Z</time>
</trkpt>
<trkpt lat="49.1305981" lon="2.6560742">
<ele>107.53</ele>
<time>2022-01-22T13:47:22Z</time>
</trkpt>
<trkpt lat="49.1307919" lon="2.6560375">
<ele>107.87</ele>
<time>2022-01-22T13:47:27Z</time>
</trkpt>
<trkpt lat="49.1310026" lon="2.6560060">
<ele>104.47</ele>
<time>2022-01-22T13:47:32Z</time>
</trkpt>
<trkpt lat="49.1311987" lon="2.6560186">
<ele>104.86</ele>
<time>2022-01-22T13:47:37Z</time>
</trkpt>
<trkpt lat="49.1313838" lon="2.6560475">
<ele>106.12</ele>
<time>2022-01-22T13:47:42Z</time>
</trkpt>
<trkpt lat="49.1315975" lon="2.6560791">
<ele>105.90</ele>
<time>2022-01-22T13:47:48Z</time>
</trkpt>
<trkpt lat="49.1317862" lon="2.6560481">
<ele>107.84</ele>
<time>2022-01-22T13:47:53Z</time>
</trkpt>
<trkpt lat="49.1319868" lon="2.6560516">
<ele>108.01</ele>
<time>2022-01-22T13:47:59Z</time>
</trkpt>
<trkpt lat="49.1321671" lon="2.6560453">
<ele>108.01</ele>
<time>2022-01-22T13:48:04Z</time>
</trkpt>
<trkpt lat="49.1323480" lon="2.6560313">
<ele>107.83</ele>
<time>2022-01-22T13:48:09Z</time>
</trkpt>
<trkpt lat="49.1325520" lon="2.6560353">
<ele>107.64</ele>
<time>2022-01-22T13:48:15Z</time>
</trkpt>
<trkpt lat="49.1327332" lon="2.6560319">
<ele>109.62</ele>
<time>2022-01-22T13:48:20Z</time>
</trkpt>
<trkpt lat="49.1329338" lon="2.6560575">
<ele>110.88</ele>
<time>2022-01-22T13:48:26Z</time>
</trkpt>
<trkpt lat="49.1331572" lon="2.6560646">
<ele>108.61</ele>
<time>2022-01-22T13:48:32Z</time>
</trkpt>
<trkpt lat="49.1333376" lon="2.6560737">
<ele>107.53</ele>
<time>2022-01-22T13:48:36Z</time>
</trkpt>
<trkpt lat="49.1335197" lon="2.6560823">
<ele>108.68</ele>
<time>2022-01-22T13:48:40Z</time>
</trkpt>
<trkpt lat="49.1337019" lon="2.6560698">
<ele>109.11</ele>
<time>2022-01-22T13:48:45Z</time>
</trkpt>
<trkpt lat="49.1339544" lon="2.6560593">
<ele>108.69</ele>
<time>2022-01-22T13:48:51Z</time>
</trkpt>
<trkpt lat="49.1341467" lon="2.6560747">
<ele>107.81</ele>
<time>2022-01-22T13:48:56Z</time>
</trkpt>
<trkpt lat="49.1343291" lon="2.6560825">
<ele>106.95</ele>
<time>2022-01-22T13:49:00Z</time>
</trkpt>
<trkpt lat="49.1345334" lon="2.6561026">
<ele>107.04</ele>
<time>2022-01-22T13:49:05Z</time>
</trkpt>
<trkpt lat="49.1347243" lon="2.6561044">
<ele>107.26</ele>
<time>2022-01-22T13:49:10Z</time>
</trkpt>
<trkpt lat="49.1349322" lon="2.6561234">
<ele>109.21</ele>
<time>2022-01-22T13:49:16Z</time>
</trkpt>
<trkpt lat="49.1351326" lon="2.6561227">
<ele>111.37</ele>
<time>2022-01-22T13:49:22Z</time>
</trkpt>
<trkpt lat="49.1353494" lon="2.6561220">
<ele>111.53</ele>
<time>2022-01-22T13:49:28Z</time>
</trkpt>
<trkpt lat="49.1355619" lon="2.6561229">
<ele>114.56</ele>
<time>2022-01-22T13:49:33Z</time>
</trkpt>
<trkpt lat="49.1358119" lon="2.6561338">
<ele>111.13</ele>
<time>2022-01-22T13:49:39Z</time>
</trkpt>
<trkpt lat="49.1360367" lon="2.6561434">
<ele>109.85</ele>
<time>2022-01-22T13:49:44Z</time>
</trkpt>
<trkpt lat="49.1362470" lon="2.6561661">
<ele>108.53</ele>
<time>2022-01-22T13:49:49Z</time>
</trkpt>
<trkpt lat="49.1364391" lon="2.6561450">
<ele>108.46</ele>
<time>2022-01-22T13:49:55Z</time>
</trkpt>
<trkpt lat="49.1366330" lon="2.6561599">
<ele>109.95</ele>
<time>2022-01-22T13:50:08Z</time>
</trkpt>
<trkpt lat="49.1368150" lon="2.6561658">
<ele>110.91</ele>
<time>2022-01-22T13:50:12Z</time>
</trkpt>
<trkpt lat="49.1369954" lon="2.6561768">
<ele>110.86</ele>
<time>2022-01-22T13:50:17Z</time>
</trkpt>
<trkpt lat="49.1372018" lon="2.6561846">
<ele>112.32</ele>
<time>2022-01-22T13:50:23Z</time>
</trkpt>
<trkpt lat="49.1374176" lon="2.6561789">
<ele>112.43</ele>
<time>2022-01-22T13:50:27Z</time>
</trkpt>
<trkpt lat="49.1376197" lon="2.6561828">
<ele>112.98</ele>
<time>2022-01-22T13:50:33Z</time>
</trkpt>
<trkpt lat="49.1378106" lon="2.6561746">
<ele>111.18</ele>
<time>2022-01-22T13:50:39Z</time>
</trkpt>
<trkpt lat="49.1380134" lon="2.6561784">
<ele>111.68</ele>
<time>2022-01-22T13:50:43Z</time>
</trkpt>
<trkpt lat="49.1382226" lon="2.6561713">
<ele>111.14</ele>
<time>2022-01-22T13:50:48Z</time>
</trkpt>
<trkpt lat="49.1384208" lon="2.6561621">
<ele>110.81</ele>
<time>2022-01-22T13:50:53Z</time>
</trkpt>
<trkpt lat="49.1386376" lon="2.6561591">
<ele>110.17</ele>
<time>2022-01-22T13:50:58Z</time>
</trkpt>
<trkpt lat="49.1388306" lon="2.6561781">
<ele>109.75</ele>
<time>2022-01-22T13:51:02Z</time>
</trkpt>
<trkpt lat="49.1390376" lon="2.6562007">
<ele>109.00</ele>
<time>2022-01-22T13:51:06Z</time>
</trkpt>
<trkpt lat="49.1392414" lon="2.6561982">
<ele>108.71</ele>
<time>2022-01-22T13:51:10Z</time>
</trkpt>
<trkpt lat="49.1394430" lon="2.6562005">
<ele>109.40</ele>
<time>2022-01-22T13:51:14Z</time>
</trkpt>
<trkpt lat="49.1396280" lon="2.6561926">
<ele>107.49</ele>
<time>2022-01-22T13:51:22Z</time>
</trkpt>
<trkpt lat="49.1398110" lon="2.6562709">
<ele>107.03</ele>
<time>2022-01-22T13:51:34Z</time>
</trkpt>
<trkpt lat="49.1399472" lon="2.6564781">
<ele>105.52</ele>
<time>2022-01-22T13:51:43Z</time>
</trkpt>
<trkpt lat="49.1400912" lon="2.6566589">
<ele>105.65</ele>
<time>2022-01-22T13:51:49Z</time>
</trkpt>
<trkpt lat="49.1402638" lon="2.6568480">
<ele>105.07</ele>
<time>2022-01-22T13:51:55Z</time>
</trkpt>
<trkpt lat="49.1404200" lon="2.6570104">
<ele>105.45</ele>
<time>2022-01-22T13:52:01Z</time>
</trkpt>
<trkpt lat="49.1405716" lon="2.6571900">
<ele>106.44</ele>
<time>2022-01-22T13:52:07Z</time>
</trkpt>
<trkpt lat="49.1407301" lon="2.6573675">
<ele>107.58</ele>
<time>2022-01-22T13:52:12Z</time>
</trkpt>
<trkpt lat="49.1409028" lon="2.6575448">
<ele>107.19</ele>
<time>2022-01-22T13:52:18Z</time>
</trkpt>
<trkpt lat="49.1410740" lon="2.6577167">
<ele>107.91</ele>
<time>2022-01-22T13:52:24Z</time>
</trkpt>
<trkpt lat="49.1412341" lon="2.6578510">
<ele>108.39</ele>
<time>2022-01-22T13:52:30Z</time>
</trkpt>
<trkpt lat="49.1414132" lon="2.6580295">
<ele>107.31</ele>
<time>2022-01-22T13:52:35Z</time>
</trkpt>
<trkpt lat="49.1415614" lon="2.6582000">
<ele>107.07</ele>
<time>2022-01-22T13:52:40Z</time>
</trkpt>
<trkpt lat="49.1417111" lon="2.6583676">
<ele>107.29</ele>
<time>2022-01-22T13:52:47Z</time>
</trkpt>
<trkpt lat="49.1418921" lon="2.6582065">
<ele>108.48</ele>
<time>2022-01-22T13:52:58Z</time>
</trkpt>
<trkpt lat="49.1420839" lon="2.6581145">
<ele>108.33</ele>
<time>2022-01-22T13:53:04Z</time>
</trkpt>
<trkpt lat="49.1422969" lon="2.6580301">
<ele>105.97</ele>
<time>2022-01-22T13:53:08Z</time>
</trkpt>
<trkpt lat="49.1424660" lon="2.6579094">
<ele>105.70</ele>
<time>2022-01-22T13:53:12Z</time>
</trkpt>
<trkpt lat="49.1426604" lon="2.6578651">
<ele>106.31</ele>
<time>2022-01-22T13:53:22Z</time>
</trkpt>
<trkpt lat="49.1428379" lon="2.6577494">
<ele>107.37</ele>
<time>2022-01-22T14:00:50Z</time>
</trkpt>
<trkpt lat="49.1430147" lon="2.6576599">
<ele>112.75</ele>
<time>2022-01-22T14:01:00Z</time>
</trkpt>
<trkpt lat="49.1431918" lon="2.6576003">
<ele>116.37</ele>
<time>2022-01-22T14:01:10Z</time>
</trkpt>
<trkpt lat="49.1433708" lon="2.6575097">
<ele>113.17</ele>
<time>2022-01-22T14:01:21Z</time>
</trkpt>
<trkpt lat="49.1435677" lon="2.6574304">
<ele>112.87</ele>
<time>2022-01-22T14:01:30Z</time>
</trkpt>
<trkpt lat="49.1437493" lon="2.6573161">
<ele>114.05</ele>
<time>2022-01-22T14:01:38Z</time>
</trkpt>
<trkpt lat="49.1439459" lon="2.6572306">
<ele>109.71</ele>
<time>2022-01-22T14:01:47Z</time>
</trkpt>
<trkpt lat="49.1441403" lon="2.6571575">
<ele>111.49</ele>
<time>2022-01-22T14:01:57Z</time>
</trkpt>
<trkpt lat="49.1443171" lon="2.6570850">
<ele>113.79</ele>
<time>2022-01-22T14:02:07Z</time>
</trkpt>
<trkpt lat="49.1444803" lon="2.6569609">
<ele>116.89</ele>
<time>2022-01-22T14:02:17Z</time>
</trkpt>
<trkpt lat="49.1446814" lon="2.6569021">
<ele>117.07</ele>
<time>2022-01-22T14:02:24Z</time>
</trkpt>
<trkpt lat="49.1448707" lon="2.6568111">
<ele>116.65</ele>
<time>2022-01-22T14:02:32Z</time>
</trkpt>
<trkpt lat="49.1450494" lon="2.6567357">
<ele>117.95</ele>
<time>2022-01-22T14:02:41Z</time>
</trkpt>
<trkpt lat="49.1452344" lon="2.6566288">
<ele>116.74</ele>
<time>2022-01-22T14:02:50Z</time>
</trkpt>
<trkpt lat="49.1454186" lon="2.6565289">
<ele>117.59</ele>
<time>2022-01-22T14:03:02Z</time>
</trkpt>
<trkpt lat="49.1456010" lon="2.6564597">
<ele>114.47</ele>
<time>2022-01-22T14:03:11Z</time>
</trkpt>
<trkpt lat="49.1457986" lon="2.6563801">
<ele>112.27</ele>
<time>2022-01-22T14:03:17Z</time>
</trkpt>
<trkpt lat="49.1459747" lon="2.6563105">
<ele>107.22</ele>
<time>2022-01-22T14:03:25Z</time>
</trkpt>
<trkpt lat="49.1461596" lon="2.6562171">
<ele>107.94</ele>
<time>2022-01-22T14:03:31Z</time>
</trkpt>
<trkpt lat="49.1463467" lon="2.6561567">
<ele>105.60</ele>
<time>2022-01-22T14:03:38Z</time>
</trkpt>
<trkpt lat="49.1463872" lon="2.6564324">
<ele>106.73</ele>
<time>2022-01-22T14:03:44Z</time>
</trkpt>
<trkpt lat="49.1464813" lon="2.6567207">
<ele>106.35</ele>
<time>2022-01-22T14:03:52Z</time>
</trkpt>
<trkpt lat="49.1466174" lon="2.6569218">
<ele>105.27</ele>
<time>2022-01-22T14:04:07Z</time>
</trkpt>
<trkpt lat="49.1467820" lon="2.6570440">
<ele>102.83</ele>
<time>2022-01-22T14:04:28Z</time>
</trkpt>
<trkpt lat="49.1469635" lon="2.6571936">
<ele>99.33</ele>
<time>2022-01-22T14:04:35Z</time>
</trkpt>
<trkpt lat="49.1471268" lon="2.6573453">
<ele>96.26</ele>
<time>2022-01-22T14:04:40Z</time>
</trkpt>
<trkpt lat="49.1473067" lon="2.6575470">
<ele>92.50</ele>
<time>2022-01-22T14:04:45Z</time>
</trkpt>
<trkpt lat="49.1474832" lon="2.6576829">
<ele>91.12</ele>
<time>2022-01-22T14:04:48Z</time>
</trkpt>
<trkpt lat="49.1476454" lon="2.6578267">
<ele>88.55</ele>
<time>2022-01-22T14:04:52Z</time>
</trkpt>
<trkpt lat="49.1478697" lon="2.6578025">
<ele>87.15</ele>
<time>2022-01-22T14:05:18Z</time>
</trkpt>
<trkpt lat="49.1480640" lon="2.6579021">
<ele>84.89</ele>
<time>2022-01-22T14:05:24Z</time>
</trkpt>
<trkpt lat="49.1482487" lon="2.6580396">
<ele>84.39</ele>
<time>2022-01-22T14:05:29Z</time>
</trkpt>
<trkpt lat="49.1484556" lon="2.6581921">
<ele>82.88</ele>
<time>2022-01-22T14:05:34Z</time>
</trkpt>
<trkpt lat="49.1486318" lon="2.6583519">
<ele>81.80</ele>
<time>2022-01-22T14:05:39Z</time>
</trkpt>
<trkpt lat="49.1488142" lon="2.6585025">
<ele>78.95</ele>
<time>2022-01-22T14:05:44Z</time>
</trkpt>
<trkpt lat="49.1490083" lon="2.6586809">
<ele>79.09</ele>
<time>2022-01-22T14:05:50Z</time>
</trkpt>
<trkpt lat="49.1491966" lon="2.6588345">
<ele>77.78</ele>
<time>2022-01-22T14:05:55Z</time>
</trkpt>
<trkpt lat="49.1493817" lon="2.6589519">
<ele>77.62</ele>
<time>2022-01-22T14:06:01Z</time>
</trkpt>
<trkpt lat="49.1495569" lon="2.6590873">
<ele>78.72</ele>
<time>2022-01-22T14:06:07Z</time>
</trkpt>
<trkpt lat="49.1497358" lon="2.6591732">
<ele>78.28</ele>
<time>2022-01-22T14:06:14Z</time>
</trkpt>
<trkpt lat="49.1497928" lon="2.6594601">
<ele>76.44</ele>
<time>2022-01-22T14:06:23Z</time>
</trkpt>
<trkpt lat="49.1498513" lon="2.6597545">
<ele>75.12</ele>
<time>2022-01-22T14:06:30Z</time>
</trkpt>
<trkpt lat="49.1498648" lon="2.6600410">
<ele>74.48</ele>
<time>2022-01-22T14:06:38Z</time>
</trkpt>
<trkpt lat="49.1499679" lon="2.6602847">
<ele>72.03</ele>
<time>2022-01-22T14:06:58Z</time>
</trkpt>
<trkpt lat="49.1500280" lon="2.6605871">
<ele>71.18</ele>
<time>2022-01-22T14:07:03Z</time>
</trkpt>
<trkpt lat="49.1501038" lon="2.6608460">
<ele>70.58</ele>
<time>2022-01-22T14:07:08Z</time>
</trkpt>
<trkpt lat="49.1501750" lon="2.6611153">
<ele>71.39</ele>
<time>2022-01-22T14:07:13Z</time>
</trkpt>
<trkpt lat="49.1502385" lon="2.6613949">
<ele>71.32</ele>
<time>2022-01-22T14:07:18Z</time>
</trkpt>
<trkpt lat="49.1503118" lon="2.6616701">
<ele>70.25</ele>
<time>2022-01-22T14:07:23Z</time>
</trkpt>
<trkpt lat="49.1503858" lon="2.6619564">
<ele>70.51</ele>
<time>2022-01-22T14:07:28Z</time>
</trkpt>
<trkpt lat="49.1504506" lon="2.6622337">
<ele>71.14</ele>
<time>2022-01-22T14:07:33Z</time>
</trkpt>
<trkpt lat="49.1505219" lon="2.6624978">
<ele>71.12</ele>
<time>2022-01-22T14:07:38Z</time>
</trkpt>
<trkpt lat="49.1505922" lon="2.6627592">
<ele>71.42</ele>
<time>2022-01-22T14:07:43Z</time>
</trkpt>
<trkpt lat="49.1506706" lon="2.6630365">
<ele>71.57</ele>
<time>2022-01-22T14:07:48Z</time>
</trkpt>
<trkpt lat="49.1507343" lon="2.6633054">
<ele>71.91</ele>
<time>2022-01-22T14:07:53Z</time>
</trkpt>
<trkpt lat="49.1507957" lon="2.6635737">
<ele>72.22</ele>
<time>2022-01-22T14:07:57Z</time>
</trkpt>
<trkpt lat="49.1508717" lon="2.6638370">
<ele>72.69</ele>
<time>2022-01-22T14:08:01Z</time>
</trkpt>
<trkpt lat="49.1509489" lon="2.6641331">
<ele>72.18</ele>
<time>2022-01-22T14:08:06Z</time>
</trkpt>
<trkpt lat="49.1510255" lon="2.6644375">
<ele>72.18</ele>
<time>2022-01-22T14:08:11Z</time>
</trkpt>
<trkpt lat="49.1511119" lon="2.6647336">
<ele>71.84</ele>
<time>2022-01-22T14:08:16Z</time>
</trkpt>
<trkpt lat="49.1511827" lon="2.6650289">
<ele>71.79</ele>
<time>2022-01-22T14:08:22Z</time>
</trkpt>
<trkpt lat="49.1512392" lon="2.6653369">
<ele>71.94</ele>
<time>2022-01-22T14:08:28Z</time>
</trkpt>
<trkpt lat="49.1513121" lon="2.6655900">
<ele>72.30</ele>
<time>2022-01-22T14:08:32Z</time>
</trkpt>
<trkpt lat="49.1513930" lon="2.6658661">
<ele>72.10</ele>
<time>2022-01-22T14:08:37Z</time>
</trkpt>
<trkpt lat="49.1514734" lon="2.6661666">
<ele>72.07</ele>
<time>2022-01-22T14:08:43Z</time>
</trkpt>
<trkpt lat="49.1515449" lon="2.6664554">
<ele>72.17</ele>
<time>2022-01-22T14:08:47Z</time>
</trkpt>
<trkpt lat="49.1516168" lon="2.6667564">
<ele>72.64</ele>
<time>2022-01-22T14:08:52Z</time>
</trkpt>
<trkpt lat="49.1516881" lon="2.6670566">
<ele>72.29</ele>
<time>2022-01-22T14:08:57Z</time>
</trkpt>
<trkpt lat="49.1517506" lon="2.6673609">
<ele>71.73</ele>
<time>2022-01-22T14:09:04Z</time>
</trkpt>
<trkpt lat="49.1518252" lon="2.6676438">
<ele>70.57</ele>
<time>2022-01-22T14:09:15Z</time>
</trkpt>
<trkpt lat="49.1519004" lon="2.6679084">
<ele>69.44</ele>
<time>2022-01-22T14:09:22Z</time>
</trkpt>
<trkpt lat="49.1519736" lon="2.6681903">
<ele>70.00</ele>
<time>2022-01-22T14:09:29Z</time>
</trkpt>
<trkpt lat="49.1520425" lon="2.6684600">
<ele>69.68</ele>
<time>2022-01-22T14:09:35Z</time>
</trkpt>
<trkpt lat="49.1521317" lon="2.6687585">
<ele>70.16</ele>
<time>2022-01-22T14:09:42Z</time>
</trkpt>
<trkpt lat="49.1521783" lon="2.6690344">
<ele>69.83</ele>
<time>2022-01-22T14:09:48Z</time>
</trkpt>
<trkpt lat="49.1522608" lon="2.6693205">
<ele>70.32</ele>
<time>2022-01-22T14:09:55Z</time>
</trkpt>
<trkpt lat="49.1523226" lon="2.6696122">
<ele>70.33</ele>
<time>2022-01-22T14:10:02Z</time>
</trkpt>
<trkpt lat="49.1523893" lon="2.6698804">
<ele>69.82</ele>
<time>2022-01-22T14:10:11Z</time>
</trkpt>
<trkpt lat="49.1525624" lon="2.6699568">
<ele>68.39</ele>
<time>2022-01-22T14:10:18Z</time>
</trkpt>
<trkpt lat="49.1527167" lon="2.6701108">
<ele>68.01</ele>
<time>2022-01-22T14:10:30Z</time>
</trkpt>
<trkpt lat="49.1528558" lon="2.6702909">
<ele>68.72</ele>
<time>2022-01-22T14:10:44Z</time>
</trkpt>
<trkpt lat="49.1529732" lon="2.6705326">
<ele>70.50</ele>
<time>2022-01-22T14:10:55Z</time>
</trkpt>
<trkpt lat="49.1530404" lon="2.6708014">
<ele>69.16</ele>
<time>2022-01-22T14:11:02Z</time>
</trkpt>
<trkpt lat="49.1531554" lon="2.6710896">
<ele>67.84</ele>
<time>2022-01-22T14:11:07Z</time>
</trkpt>
<trkpt lat="49.1532744" lon="2.6713491">
<ele>66.95</ele>
<time>2022-01-22T14:11:12Z</time>
</trkpt>
<trkpt lat="49.1533421" lon="2.6716098">
<ele>66.98</ele>
<time>2022-01-22T14:11:16Z</time>
</trkpt>
<trkpt lat="49.1534049" lon="2.6718967">
<ele>67.34</ele>
<time>2022-01-22T14:11:20Z</time>
</trkpt>
<trkpt lat="49.1534774" lon="2.6721810">
<ele>67.53</ele>
<time>2022-01-22T14:11:25Z</time>
</trkpt>
<trkpt lat="49.1535479" lon="2.6724475">
<ele>67.47</ele>
<time>2022-01-22T14:11:30Z</time>
</trkpt>
<trkpt lat="49.1536312" lon="2.6727163">
<ele>67.36</ele>
<time>2022-01-22T14:11:34Z</time>
</trkpt>
<trkpt lat="49.1537379" lon="2.6730107">
<ele>68.58</ele>
<time>2022-01-22T14:11:39Z</time>
</trkpt>
<trkpt lat="49.1538356" lon="2.6732696">
<ele>69.15</ele>
<time>2022-01-22T14:11:43Z</time>
</trkpt>
<trkpt lat="49.1539487" lon="2.6735252">
<ele>70.33</ele>
<time>2022-01-22T14:11:48Z</time>
</trkpt>
<trkpt lat="49.1540359" lon="2.6737957">
<ele>70.65</ele>
<time>2022-01-22T14:11:54Z</time>
</trkpt>
<trkpt lat="49.1541102" lon="2.6740604">
<ele>67.61</ele>
<time>2022-01-22T14:12:25Z</time>
</trkpt>
<trkpt lat="49.1541688" lon="2.6743318">
<ele>66.97</ele>
<time>2022-01-22T14:12:33Z</time>
</trkpt>
<trkpt lat="49.1542358" lon="2.6746044">
<ele>66.06</ele>
<time>2022-01-22T14:12:40Z</time>
</trkpt>
<trkpt lat="49.1543336" lon="2.6748701">
<ele>66.25</ele>
<time>2022-01-22T14:12:46Z</time>
</trkpt>
<trkpt lat="49.1543867" lon="2.6751348">
<ele>66.72</ele>
<time>2022-01-22T14:12:51Z</time>
</trkpt>
<trkpt lat="49.1544346" lon="2.6754128">
<ele>67.19</ele>
<time>2022-01-22T14:12:56Z</time>
</trkpt>
<trkpt lat="49.1544670" lon="2.6757183">
<ele>67.60</ele>
<time>2022-01-22T14:13:01Z</time>
</trkpt>
<trkpt lat="49.1545058" lon="2.6760079">
<ele>67.52</ele>
<time>2022-01-22T14:13:06Z</time>
</trkpt>
<trkpt lat="49.1545756" lon="2.6762764">
<ele>67.85</ele>
<time>2022-01-22T14:13:11Z</time>
</trkpt>
<trkpt lat="49.1546743" lon="2.6765107">
<ele>68.01</ele>
<time>2022-01-22T14:13:17Z</time>
</trkpt>
<trkpt lat="49.1547704" lon="2.6767732">
<ele>68.24</ele>
<time>2022-01-22T14:13:23Z</time>
</trkpt>
<trkpt lat="49.1548863" lon="2.6770563">
<ele>68.04</ele>
<time>2022-01-22T14:13:29Z</time>
</trkpt>
<trkpt lat="49.1549888" lon="2.6773181">
<ele>68.10</ele>
<time>2022-01-22T14:13:34Z</time>
</trkpt>
<trkpt lat="49.1550850" lon="2.6775507">
<ele>68.05</ele>
<time>2022-01-22T14:13:38Z</time>
</trkpt>
<trkpt lat="49.1551810" lon="2.6777899">
<ele>68.78</ele>
<time>2022-01-22T14:13:42Z</time>
</trkpt>
<trkpt lat="49.1552736" lon="2.6780337">
<ele>69.27</ele>
<time>2022-01-22T14:13:46Z</time>
</trkpt>
<trkpt lat="49.1553940" lon="2.6783028">
<ele>68.55</ele>
<time>2022-01-22T14:13:51Z</time>
</trkpt>
<trkpt lat="49.1554963" lon="2.6785777">
<ele>68.48</ele>
<time>2022-01-22T14:13:56Z</time>
</trkpt>
<trkpt lat="49.1555890" lon="2.6788517">
<ele>68.54</ele>
<time>2022-01-22T14:14:01Z</time>
</trkpt>
<trkpt lat="49.1556896" lon="2.6791286">
<ele>68.89</ele>
<time>2022-01-22T14:14:06Z</time>
</trkpt>
<trkpt lat="49.1557887" lon="2.6793858">
<ele>69.04</ele>
<time>2022-01-22T14:14:11Z</time>
</trkpt>
<trkpt lat="49.1558877" lon="2.6796571">
<ele>68.59</ele>
<time>2022-01-22T14:14:16Z</time>
</trkpt>
<trkpt lat="49.1559938" lon="2.6799002">
<ele>68.26</ele>
<time>2022-01-22T14:14:21Z</time>
</trkpt>
<trkpt lat="49.1560990" lon="2.6801847">
<ele>67.88</ele>
<time>2022-01-22T14:14:26Z</time>
</trkpt>
<trkpt lat="49.1562092" lon="2.6804790">
<ele>67.82</ele>
<time>2022-01-22T14:14:31Z</time>
</trkpt>
<trkpt lat="49.1563207" lon="2.6807758">
<ele>68.16</ele>
<time>2022-01-22T14:14:36Z</time>
</trkpt>
<trkpt lat="49.1564275" lon="2.6810753">
<ele>68.09</ele>
<time>2022-01-22T14:14:41Z</time>
</trkpt>
<trkpt lat="49.1565246" lon="2.6813458">
<ele>67.13</ele>
<time>2022-01-22T14:14:46Z</time>
</trkpt>
<trkpt lat="49.1566128" lon="2.6816404">
<ele>66.47</ele>
<time>2022-01-22T14:14:52Z</time>
</trkpt>
<trkpt lat="49.1567185" lon="2.6819305">
<ele>65.95</ele>
<time>2022-01-22T14:14:58Z</time>
</trkpt>
<trkpt lat="49.1568175" lon="2.6822238">
<ele>66.08</ele>
<time>2022-01-22T14:15:04Z</time>
</trkpt>
<trkpt lat="49.1568946" lon="2.6825044">
<ele>65.48</ele>
<time>2022-01-22T14:15:09Z</time>
</trkpt>
<trkpt lat="49.1569263" lon="2.6828328">
<ele>65.12</ele>
<time>2022-01-22T14:15:14Z</time>
</trkpt>
<trkpt lat="49.1569535" lon="2.6831379">
<ele>65.25</ele>
<time>2022-01-22T14:15:19Z</time>
</trkpt>
<trkpt lat="49.1569800" lon="2.6834422">
<ele>64.77</ele>
<time>2022-01-22T14:15:23Z</time>
</trkpt>
<trkpt lat="49.1569967" lon="2.6837301">
<ele>64.23</ele>
<time>2022-01-22T14:15:27Z</time>
</trkpt>
<trkpt lat="49.1569966" lon="2.6840587">
<ele>64.16</ele>
<time>2022-01-22T14:15:32Z</time>
</trkpt>
<trkpt lat="49.1569791" lon="2.6843863">
<ele>64.19</ele>
<time>2022-01-22T14:15:37Z</time>
</trkpt>
<trkpt lat="49.1569259" lon="2.6846826">
<ele>64.62</ele>
<time>2022-01-22T14:15:42Z</time>
</trkpt>
<trkpt lat="49.1571034" lon="2.6847832">
<ele>63.61</ele>
<time>2022-01-22T14:16:06Z</time>
</trkpt>
<trkpt lat="49.1572788" lon="2.6848631">
<ele>63.35</ele>
<time>2022-01-22T14:16:15Z</time>
</trkpt>
<trkpt lat="49.1574790" lon="2.6848616">
<ele>63.68</ele>
<time>2022-01-22T14:16:20Z</time>
</trkpt>
<trkpt lat="49.1576837" lon="2.6848841">
<ele>64.88</ele>
<time>2022-01-22T14:16:27Z</time>
</trkpt>
<trkpt lat="49.1578598" lon="2.6850111">
<ele>65.66</ele>
<time>2022-01-22T14:16:35Z</time>
</trkpt>
<trkpt lat="49.1580438" lon="2.6850795">
<ele>65.53</ele>
<time>2022-01-22T14:16:40Z</time>
</trkpt>
<trkpt lat="49.1582241" lon="2.6850529">
<ele>68.90</ele>
<time>2022-01-22T14:16:44Z</time>
</trkpt>
<trkpt lat="49.1584157" lon="2.6851063">
<ele>66.28</ele>
<time>2022-01-22T14:16:50Z</time>
</trkpt>
<trkpt lat="49.1585897" lon="2.6852533">
<ele>70.12</ele>
<time>2022-01-22T14:16:58Z</time>
</trkpt>
<trkpt lat="49.1587678" lon="2.6853606">
<ele>76.00</ele>
<time>2022-01-22T14:17:06Z</time>
</trkpt>
<trkpt lat="49.1589852" lon="2.6853992">
<ele>71.86</ele>
<time>2022-01-22T14:17:11Z</time>
</trkpt>
<trkpt lat="49.1591894" lon="2.6854208">
<ele>68.07</ele>
<time>2022-01-22T14:17:19Z</time>
</trkpt>
<trkpt lat="49.1594132" lon="2.6854854">
<ele>67.68</ele>
<time>2022-01-22T14:17:24Z</time>
</trkpt>
<trkpt lat="49.1596134" lon="2.6855352">
<ele>66.42</ele>
<time>2022-01-22T14:17:30Z</time>
</trkpt>
<trkpt lat="49.1597982" lon="2.6855979">
<ele>69.34</ele>
<time>2022-01-22T14:17:37Z</time>
</trkpt>
<trkpt lat="49.1600037" lon="2.6856600">
<ele>70.79</ele>
<time>2022-01-22T14:17:42Z</time>
</trkpt>
<trkpt lat="49.1601844" lon="2.6856987">
<ele>72.06</ele>
<time>2022-01-22T14:17:46Z</time>
</trkpt>
<trkpt lat="49.1603910" lon="2.6857984">
<ele>71.85</ele>
<time>2022-01-22T14:17:53Z</time>
</trkpt>
<trkpt lat="49.1605863" lon="2.6858469">
<ele>72.57</ele>
<time>2022-01-22T14:17:56Z</time>
</trkpt>
<trkpt lat="49.1607770" lon="2.6858780">
<ele>73.92</ele>
<time>2022-01-22T14:18:02Z</time>
</trkpt>
<trkpt lat="49.1609511" lon="2.6859852">
<ele>73.16</ele>
<time>2022-01-22T14:18:07Z</time>
</trkpt>
<trkpt lat="49.1611126" lon="2.6861118">
<ele>74.00</ele>
<time>2022-01-22T14:18:13Z</time>
</trkpt>
<trkpt lat="49.1613093" lon="2.6861248">
<ele>73.13</ele>
<time>2022-01-22T14:18:19Z</time>
</trkpt>
<trkpt lat="49.1614832" lon="2.6862950">
<ele>73.64</ele>
<time>2022-01-22T14:18:25Z</time>
</trkpt>
<trkpt lat="49.1616763" lon="2.6863595">
<ele>74.49</ele>
<time>2022-01-22T14:18:31Z</time>
</trkpt>
<trkpt lat="49.1618789" lon="2.6864100">
<ele>76.81</ele>
<time>2022-01-22T14:18:37Z</time>
</trkpt>
<trkpt lat="49.1620936" lon="2.6864453">
<ele>75.89</ele>
<time>2022-01-22T14:18:43Z</time>
</trkpt>
<trkpt lat="49.1622806" lon="2.6864796">
<ele>70.09</ele>
<time>2022-01-22T14:18:48Z</time>
</trkpt>
<trkpt lat="49.1624327" lon="2.6863265">
<ele>69.57</ele>
<time>2022-01-22T14:18:53Z</time>
</trkpt>
<trkpt lat="49.1625922" lon="2.6861867">
<ele>70.09</ele>
<time>2022-01-22T14:18:57Z</time>
</trkpt>
<trkpt lat="49.1627887" lon="2.6861675">
<ele>66.42</ele>
<time>2022-01-22T14:19:05Z</time>
</trkpt>
<trkpt lat="49.1629774" lon="2.6861263">
<ele>66.07</ele>
<time>2022-01-22T14:19:13Z</time>
</trkpt>
<trkpt lat="49.1631434" lon="2.6859855">
<ele>70.26</ele>
<time>2022-01-22T14:19:19Z</time>
</trkpt>
<trkpt lat="49.1633402" lon="2.6860603">
<ele>70.34</ele>
<time>2022-01-22T14:19:27Z</time>
</trkpt>
<trkpt lat="49.1635384" lon="2.6859623">
<ele>71.22</ele>
<time>2022-01-22T14:19:33Z</time>
</trkpt>
<trkpt lat="49.1636874" lon="2.6857521">
<ele>70.51</ele>
<time>2022-01-22T14:19:39Z</time>
</trkpt>
<trkpt lat="49.1638688" lon="2.6857032">
<ele>69.76</ele>
<time>2022-01-22T14:19:46Z</time>
</trkpt>
<trkpt lat="49.1640224" lon="2.6855544">
<ele>69.46</ele>
<time>2022-01-22T14:19:56Z</time>
</trkpt>
<trkpt lat="49.1642221" lon="2.6855894">
<ele>69.35</ele>
<time>2022-01-22T14:20:04Z</time>
</trkpt>
<trkpt lat="49.1643946" lon="2.6854649">
<ele>67.98</ele>
<time>2022-01-22T14:20:12Z</time>
</trkpt>
<trkpt lat="49.1645634" lon="2.6853127">
<ele>67.04</ele>
<time>2022-01-22T14:20:21Z</time>
</trkpt>
<trkpt lat="49.1647507" lon="2.6852909">
<ele>67.92</ele>
<time>2022-01-22T14:20:29Z</time>
</trkpt>
<trkpt lat="49.1649324" lon="2.6851484">
<ele>67.33</ele>
<time>2022-01-22T14:20:37Z</time>
</trkpt>
<trkpt lat="49.1651217" lon="2.6852699">
<ele>67.93</ele>
<time>2022-01-22T14:20:42Z</time>
</trkpt>
<trkpt lat="49.1652759" lon="2.6851068">
<ele>68.34</ele>
<time>2022-01-22T14:20:52Z</time>
</trkpt>
<trkpt lat="49.1654624" lon="2.6851032">
<ele>69.44</ele>
<time>2022-01-22T14:21:00Z</time>
</trkpt>
<trkpt lat="49.1656551" lon="2.6850855">
<ele>68.45</ele>
<time>2022-01-22T14:21:11Z</time>
</trkpt>
<trkpt lat="49.1658224" lon="2.6852132">
<ele>67.25</ele>
<time>2022-01-22T14:21:20Z</time>
</trkpt>
<trkpt lat="49.1660086" lon="2.6852236">
<ele>68.96</ele>
<time>2022-01-22T14:21:29Z</time>
</trkpt>
<trkpt lat="49.1661935" lon="2.6853064">
<ele>66.34</ele>
<time>2022-01-22T14:21:36Z</time>
</trkpt>
<trkpt lat="49.1663592" lon="2.6854463">
<ele>65.89</ele>
<time>2022-01-22T14:21:47Z</time>
</trkpt>
<trkpt lat="49.1665397" lon="2.6855746">
<ele>63.74</ele>
<time>2022-01-22T14:21:55Z</time>
</trkpt>
<trkpt lat="49.1665717" lon="2.6858631">
<ele>63.50</ele>
<time>2022-01-22T14:22:07Z</time>
</trkpt>
<trkpt lat="49.1665982" lon="2.6861678">
<ele>63.88</ele>
<time>2022-01-22T14:22:14Z</time>
</trkpt>
<trkpt lat="49.1667011" lon="2.6864019">
<ele>62.90</ele>
<time>2022-01-22T14:22:19Z</time>
</trkpt>
<trkpt lat="49.1667586" lon="2.6866669">
<ele>62.51</ele>
<time>2022-01-22T14:22:25Z</time>
</trkpt>
<trkpt lat="49.1668106" lon="2.6869353">
<ele>63.86</ele>
<time>2022-01-22T14:22:31Z</time>
</trkpt>
<trkpt lat="49.1667410" lon="2.6871991">
<ele>63.50</ele>
<time>2022-01-22T14:22:44Z</time>
</trkpt>
<trkpt lat="49.1669257" lon="2.6871533">
<ele>64.69</ele>
<time>2022-01-22T14:23:15Z</time>
</trkpt>
<trkpt lat="49.1670960" lon="2.6870027">
<ele>64.93</ele>
<time>2022-01-22T14:23:35Z</time>
</trkpt>
<trkpt lat="49.1672848" lon="2.6868585">
<ele>62.95</ele>
<time>2022-01-22T14:23:41Z</time>
</trkpt>
<trkpt lat="49.1674778" lon="2.6867478">
<ele>62.26</ele>
<time>2022-01-22T14:23:47Z</time>
</trkpt>
<trkpt lat="49.1676452" lon="2.6866388">
<ele>62.41</ele>
<time>2022-01-22T14:23:53Z</time>
</trkpt>
<trkpt lat="49.1678129" lon="2.6865339">
<ele>64.60</ele>
<time>2022-01-22T14:23:59Z</time>
</trkpt>
<trkpt lat="49.1679870" lon="2.6864272">
<ele>66.27</ele>
<time>2022-01-22T14:24:06Z</time>
</trkpt>
<trkpt lat="49.1681806" lon="2.6863230">
<ele>65.70</ele>
<time>2022-01-22T14:24:13Z</time>
</trkpt>
<trkpt lat="49.1683585" lon="2.6861926">
<ele>66.72</ele>
<time>2022-01-22T14:24:21Z</time>
</trkpt>
<trkpt lat="49.1685427" lon="2.6860745">
<ele>68.61</ele>
<time>2022-01-22T14:24:31Z</time>
</trkpt>
<trkpt lat="49.1687179" lon="2.6859567">
<ele>69.04</ele>
<time>2022-01-22T14:24:42Z</time>
</trkpt>
<trkpt lat="49.1688841" lon="2.6858184">
<ele>70.62</ele>
<time>2022-01-22T14:24:49Z</time>
</trkpt>
<trkpt lat="49.1690588" lon="2.6856977">
<ele>71.24</ele>
<time>2022-01-22T14:24:55Z</time>
</trkpt>
<trkpt lat="49.1692434" lon="2.6855825">
<ele>72.25</ele>
<time>2022-01-22T14:25:01Z</time>
</trkpt>
<trkpt lat="49.1694283" lon="2.6854898">
<ele>73.13</ele>
<time>2022-01-22T14:25:07Z</time>
</trkpt>
<trkpt lat="49.1696132" lon="2.6853338">
<ele>73.06</ele>
<time>2022-01-22T14:25:14Z</time>
</trkpt>
<trkpt lat="49.1698150" lon="2.6852327">
<ele>73.60</ele>
<time>2022-01-22T14:25:20Z</time>
</trkpt>
<trkpt lat="49.1699860" lon="2.6850639">
<ele>73.50</ele>
<time>2022-01-22T14:25:26Z</time>
</trkpt>
<trkpt lat="49.1701725" lon="2.6849252">
<ele>73.96</ele>
<time>2022-01-22T14:25:32Z</time>
</trkpt>
<trkpt lat="49.1703390" lon="2.6847524">
<ele>73.02</ele>
<time>2022-01-22T14:25:45Z</time>
</trkpt>
<trkpt lat="49.1704984" lon="2.6846164">
<ele>74.07</ele>
<time>2022-01-22T14:25:51Z</time>
</trkpt>
<trkpt lat="49.1706629" lon="2.6844856">
<ele>73.24</ele>
<time>2022-01-22T14:25:56Z</time>
</trkpt>
<trkpt lat="49.1708507" lon="2.6843177">
<ele>71.58</ele>
<time>2022-01-22T14:26:01Z</time>
</trkpt>
<trkpt lat="49.1710415" lon="2.6841647">
<ele>70.33</ele>
<time>2022-01-22T14:26:06Z</time>
</trkpt>
<trkpt lat="49.1712326" lon="2.6840337">
<ele>70.04</ele>
<time>2022-01-22T14:26:11Z</time>
</trkpt>
<trkpt lat="49.1714219" lon="2.6839782">
<ele>69.95</ele>
<time>2022-01-22T14:26:15Z</time>
</trkpt>
<trkpt lat="49.1716088" lon="2.6839400">
<ele>69.98</ele>
<time>2022-01-22T14:26:19Z</time>
</trkpt>
<trkpt lat="49.1717988" lon="2.6839135">
<ele>73.63</ele>
<time>2022-01-22T14:28:58Z</time>
</trkpt>
<trkpt lat="49.1719949" lon="2.6839491">
<ele>71.66</ele>
<time>2022-01-22T14:29:07Z</time>
</trkpt>
<trkpt lat="49.1721881" lon="2.6839940">
<ele>69.29</ele>
<time>2022-01-22T14:29:14Z</time>
</trkpt>
<trkpt lat="49.1723768" lon="2.6840536">
<ele>69.24</ele>
<time>2022-01-22T14:29:21Z</time>
</trkpt>
<trkpt lat="49.1725761" lon="2.6841105">
<ele>70.08</ele>
<time>2022-01-22T14:29:29Z</time>
</trkpt>
<trkpt lat="49.1727755" lon="2.6841263">
<ele>69.60</ele>
<time>2022-01-22T14:29:37Z</time>
</trkpt>
<trkpt lat="49.1729614" lon="2.6841267">
<ele>71.71</ele>
<time>2022-01-22T14:29:45Z</time>
</trkpt>
<trkpt lat="49.1731589" lon="2.6840979">
<ele>72.67</ele>
<time>2022-01-22T14:29:51Z</time>
</trkpt>
<trkpt lat="49.1733608" lon="2.6841277">
<ele>71.99</ele>
<time>2022-01-22T14:29:57Z</time>
</trkpt>
<trkpt lat="49.1735479" lon="2.6842104">
<ele>70.67</ele>
<time>2022-01-22T14:30:05Z</time>
</trkpt>
<trkpt lat="49.1735650" lon="2.6839090">
<ele>67.61</ele>
<time>2022-01-22T14:30:12Z</time>
</trkpt>
<trkpt lat="49.1734949" lon="2.6836340">
<ele>68.18</ele>
<time>2022-01-22T14:30:17Z</time>
</trkpt>
<trkpt lat="49.1734488" lon="2.6833387">
<ele>66.76</ele>
<time>2022-01-22T14:30:21Z</time>
</trkpt>
<trkpt lat="49.1733757" lon="2.6830118">
<ele>66.02</ele>
<time>2022-01-22T14:30:25Z</time>
</trkpt>
<trkpt lat="49.1733231" lon="2.6826808">
<ele>64.49</ele>
<time>2022-01-22T14:30:29Z</time>
</trkpt>
<trkpt lat="49.1732582" lon="2.6823839">
<ele>63.81</ele>
<time>2022-01-22T14:30:33Z</time>
</trkpt>
<trkpt lat="49.1732060" lon="2.6821090">
<ele>62.16</ele>
<time>2022-01-22T14:30:37Z</time>
</trkpt>
<trkpt lat="49.1731477" lon="2.6818283">
<ele>61.85</ele>
<time>2022-01-22T14:30:44Z</time>
</trkpt>
<trkpt lat="49.1731057" lon="2.6815602">
<ele>60.83</ele>
<time>2022-01-22T14:31:02Z</time>
</trkpt>
<trkpt lat="49.1730128" lon="2.6813042">
<ele>65.88</ele>
<time>2022-01-22T14:37:14Z</time>
</trkpt>
<trkpt lat="49.1730675" lon="2.6815700">
<ele>64.31</ele>
<time>2022-01-22T14:37:28Z</time>
</trkpt>
<trkpt lat="49.1730442" lon="2.6812822">
<ele>65.36</ele>
<time>2022-01-22T14:38:17Z</time>
</trkpt>
<trkpt lat="49.1729767" lon="2.6809885">
<ele>66.18</ele>
<time>2022-01-22T14:38:26Z</time>
</trkpt>
<trkpt lat="49.1728959" lon="2.6807169">
<ele>66.49</ele>
<time>2022-01-22T14:38:34Z</time>
</trkpt>
<trkpt lat="49.1728507" lon="2.6804496">
<ele>59.34</ele>
<time>2022-01-22T14:38:49Z</time>
</trkpt>
<trkpt lat="49.1726313" lon="2.6804527">
<ele>57.32</ele>
<time>2022-01-22T14:39:34Z</time>
</trkpt>
<trkpt lat="49.1724589" lon="2.6803226">
<ele>55.94</ele>
<time>2022-01-22T14:39:38Z</time>
</trkpt>
<trkpt lat="49.1722477" lon="2.6802735">
<ele>58.26</ele>
<time>2022-01-22T14:39:42Z</time>
</trkpt>
<trkpt lat="49.1720405" lon="2.6802413">
<ele>60.66</ele>
<time>2022-01-22T14:39:46Z</time>
</trkpt>
<trkpt lat="49.1718206" lon="2.6801812">
<ele>61.44</ele>
<time>2022-01-22T14:39:51Z</time>
</trkpt>
<trkpt lat="49.1715925" lon="2.6801231">
<ele>61.18</ele>
<time>2022-01-22T14:39:56Z</time>
</trkpt>
<trkpt lat="49.1713957" lon="2.6800841">
<ele>61.37</ele>
<time>2022-01-22T14:40:02Z</time>
</trkpt>
<trkpt lat="49.1711899" lon="2.6800420">
<ele>63.69</ele>
<time>2022-01-22T14:40:05Z</time>
</trkpt>
<trkpt lat="49.1709987" lon="2.6799958">
<ele>62.55</ele>
<time>2022-01-22T14:40:09Z</time>
</trkpt>
<trkpt lat="49.1708088" lon="2.6799694">
<ele>63.96</ele>
<time>2022-01-22T14:40:13Z</time>
</trkpt>
<trkpt lat="49.1705601" lon="2.6799802">
<ele>63.09</ele>
<time>2022-01-22T14:40:19Z</time>
</trkpt>
<trkpt lat="49.1703594" lon="2.6800089">
<ele>62.60</ele>
<time>2022-01-22T14:40:23Z</time>
</trkpt>
<trkpt lat="49.1701420" lon="2.6800629">
<ele>61.74</ele>
<time>2022-01-22T14:40:28Z</time>
</trkpt>
<trkpt lat="49.1699356" lon="2.6801302">
<ele>63.46</ele>
<time>2022-01-22T14:40:33Z</time>
</trkpt>
<trkpt lat="49.1697568" lon="2.6801625">
<ele>65.23</ele>
<time>2022-01-22T14:40:37Z</time>
</trkpt>
<trkpt lat="49.1695590" lon="2.6801799">
<ele>66.27</ele>
<time>2022-01-22T14:40:42Z</time>
</trkpt>
<trkpt lat="49.1693718" lon="2.6801532">
<ele>65.15</ele>
<time>2022-01-22T14:40:47Z</time>
</trkpt>
<trkpt lat="49.1691694" lon="2.6801406">
<ele>64.33</ele>
<time>2022-01-22T14:40:52Z</time>
</trkpt>
<trkpt lat="49.1689576" lon="2.6801167">
<ele>62.19</ele>
<time>2022-01-22T14:40:58Z</time>
</trkpt>
<trkpt lat="49.1687760" lon="2.6801044">
<ele>62.72</ele>
<time>2022-01-22T14:41:01Z</time>
</trkpt>
<trkpt lat="49.1685800" lon="2.6800960">
<ele>62.71</ele>
<time>2022-01-22T14:41:05Z</time>
</trkpt>
<trkpt lat="49.1683479" lon="2.6800604">
<ele>61.08</ele>
<time>2022-01-22T14:41:09Z</time>
</trkpt>
<trkpt lat="49.1681149" lon="2.6800521">
<ele>59.07</ele>
<time>2022-01-22T14:41:13Z</time>
</trkpt>
<trkpt lat="49.1678798" lon="2.6800642">
<ele>56.94</ele>
<time>2022-01-22T14:41:17Z</time>
</trkpt>
<trkpt lat="49.1677022" lon="2.6801279">
<ele>59.65</ele>
<time>2022-01-22T14:41:20Z</time>
</trkpt>
<trkpt lat="49.1675386" lon="2.6802673">
<ele>57.97</ele>
<time>2022-01-22T14:41:24Z</time>
</trkpt>
<trkpt lat="49.1673856" lon="2.6804483">
<ele>56.68</ele>
<time>2022-01-22T14:41:28Z</time>
</trkpt>
<trkpt lat="49.1672081" lon="2.6806465">
<ele>55.81</ele>
<time>2022-01-22T14:41:33Z</time>
</trkpt>
<trkpt lat="49.1670187" lon="2.6806894">
<ele>57.20</ele>
<time>2022-01-22T14:41:37Z</time>
</trkpt>
<trkpt lat="49.1668133" lon="2.6805760">
<ele>57.72</ele>
<time>2022-01-22T14:41:42Z</time>
</trkpt>
<trkpt lat="49.1666534" lon="2.6804496">
<ele>61.68</ele>
<time>2022-01-22T14:41:46Z</time>
</trkpt>
<trkpt lat="49.1665008" lon="2.6802999">
<ele>63.22</ele>
<time>2022-01-22T14:41:50Z</time>
</trkpt>
<trkpt lat="49.1663374" lon="2.6801511">
<ele>63.53</ele>
<time>2022-01-22T14:41:54Z</time>
</trkpt>
<trkpt lat="49.1661481" lon="2.6800181">
<ele>63.24</ele>
<time>2022-01-22T14:41:58Z</time>
</trkpt>
<trkpt lat="49.1659597" lon="2.6798992">
<ele>64.03</ele>
<time>2022-01-22T14:42:02Z</time>
</trkpt>
<trkpt lat="49.1657856" lon="2.6797917">
<ele>61.44</ele>
<time>2022-01-22T14:42:07Z</time>
</trkpt>
<trkpt lat="49.1655424" lon="2.6796839">
<ele>62.93</ele>
<time>2022-01-22T14:42:10Z</time>
</trkpt>
<trkpt lat="49.1653534" lon="2.6796054">
<ele>62.23</ele>
<time>2022-01-22T14:42:14Z</time>
</trkpt>
<trkpt lat="49.1651518" lon="2.6794810">
<ele>65.59</ele>
<time>2022-01-22T14:42:18Z</time>
</trkpt>
<trkpt lat="49.1649619" lon="2.6793894">
<ele>68.28</ele>
<time>2022-01-22T14:42:22Z</time>
</trkpt>
<trkpt lat="49.1647520" lon="2.6792750">
<ele>68.36</ele>
<time>2022-01-22T14:42:27Z</time>
</trkpt>
<trkpt lat="49.1645360" lon="2.6791612">
<ele>68.02</ele>
<time>2022-01-22T14:42:32Z</time>
</trkpt>
<trkpt lat="49.1643391" lon="2.6791168">
<ele>67.50</ele>
<time>2022-01-22T14:42:36Z</time>
</trkpt>
<trkpt lat="49.1641455" lon="2.6791311">
<ele>66.60</ele>
<time>2022-01-22T14:42:41Z</time>
</trkpt>
<trkpt lat="49.1639603" lon="2.6791807">
<ele>70.17</ele>
<time>2022-01-22T14:42:49Z</time>
</trkpt>
<trkpt lat="49.1637824" lon="2.6792898">
<ele>68.44</ele>
<time>2022-01-22T14:42:56Z</time>
</trkpt>
<trkpt lat="49.1636044" lon="2.6793846">
<ele>63.01</ele>
<time>2022-01-22T14:43:04Z</time>
</trkpt>
<trkpt lat="49.1634220" lon="2.6794662">
<ele>64.35</ele>
<time>2022-01-22T14:43:10Z</time>
</trkpt>
<trkpt lat="49.1632147" lon="2.6795474">
<ele>64.47</ele>
<time>2022-01-22T14:43:17Z</time>
</trkpt>
<trkpt lat="49.1630333" lon="2.6796340">
<ele>64.04</ele>
<time>2022-01-22T14:43:22Z</time>
</trkpt>
<trkpt lat="49.1628463" lon="2.6797196">
<ele>64.09</ele>
<time>2022-01-22T14:43:27Z</time>
</trkpt>
<trkpt lat="49.1626529" lon="2.6797856">
<ele>63.11</ele>
<time>2022-01-22T14:43:32Z</time>
</trkpt>
<trkpt lat="49.1624588" lon="2.6798676">
<ele>62.48</ele>
<time>2022-01-22T14:43:37Z</time>
</trkpt>
<trkpt lat="49.1622828" lon="2.6799405">
<ele>62.98</ele>
<time>2022-01-22T14:43:41Z</time>
</trkpt>
<trkpt lat="49.1621045" lon="2.6800200">
<ele>63.13</ele>
<time>2022-01-22T14:43:45Z</time>
</trkpt>
<trkpt lat="49.1619143" lon="2.6800749">
<ele>60.33</ele>
<time>2022-01-22T14:43:50Z</time>
</trkpt>
<trkpt lat="49.1617332" lon="2.6801558">
<ele>62.69</ele>
<time>2022-01-22T14:43:54Z</time>
</trkpt>
<trkpt lat="49.1615511" lon="2.6802477">
<ele>65.67</ele>
<time>2022-01-22T14:43:58Z</time>
</trkpt>
<trkpt lat="49.1613761" lon="2.6803333">
<ele>66.05</ele>
<time>2022-01-22T14:44:02Z</time>
</trkpt>
<trkpt lat="49.1611946" lon="2.6803751">
<ele>66.37</ele>
<time>2022-01-22T14:44:06Z</time>
</trkpt>
<trkpt lat="49.1609965" lon="2.6804594">
<ele>66.18</ele>
<time>2022-01-22T14:44:10Z</time>
</trkpt>
<trkpt lat="49.1608087" lon="2.6805224">
<ele>66.84</ele>
<time>2022-01-22T14:44:14Z</time>
</trkpt>
<trkpt lat="49.1605940" lon="2.6806424">
<ele>67.06</ele>
<time>2022-01-22T14:44:19Z</time>
</trkpt>
<trkpt lat="49.1603984" lon="2.6807077">
<ele>69.04</ele>
<time>2022-01-22T14:44:23Z</time>
</trkpt>
<trkpt lat="49.1601835" lon="2.6807757">
<ele>67.89</ele>
<time>2022-01-22T14:44:28Z</time>
</trkpt>
<trkpt lat="49.1599940" lon="2.6808414">
<ele>68.20</ele>
<time>2022-01-22T14:44:32Z</time>
</trkpt>
<trkpt lat="49.1597942" lon="2.6809270">
<ele>70.59</ele>
<time>2022-01-22T14:44:36Z</time>
</trkpt>
<trkpt lat="49.1595911" lon="2.6810003">
<ele>72.43</ele>
<time>2022-01-22T14:44:40Z</time>
</trkpt>
<trkpt lat="49.1594091" lon="2.6811011">
<ele>71.98</ele>
<time>2022-01-22T14:44:44Z</time>
</trkpt>
<trkpt lat="49.1591990" lon="2.6811877">
<ele>69.05</ele>
<time>2022-01-22T14:44:49Z</time>
</trkpt>
<trkpt lat="49.1589891" lon="2.6812846">
<ele>68.21</ele>
<time>2022-01-22T14:44:54Z</time>
</trkpt>
<trkpt lat="49.1587989" lon="2.6813662">
<ele>66.83</ele>
<time>2022-01-22T14:44:59Z</time>
</trkpt>
<trkpt lat="49.1586010" lon="2.6814399">
<ele>65.67</ele>
<time>2022-01-22T14:45:04Z</time>
</trkpt>
<trkpt lat="49.1584006" lon="2.6815268">
<ele>65.69</ele>
<time>2022-01-22T14:45:09Z</time>
</trkpt>
<trkpt lat="49.1581982" lon="2.6816188">
<ele>65.70</ele>
<time>2022-01-22T14:45:14Z</time>
</trkpt>
<trkpt lat="49.1579963" lon="2.6817208">
<ele>65.67</ele>
<time>2022-01-22T14:45:19Z</time>
</trkpt>
<trkpt lat="49.1577969" lon="2.6818260">
<ele>66.17</ele>
<time>2022-01-22T14:45:24Z</time>
</trkpt>
<trkpt lat="49.1575958" lon="2.6819292">
<ele>66.04</ele>
<time>2022-01-22T14:45:29Z</time>
</trkpt>
<trkpt lat="49.1574138" lon="2.6820245">
<ele>66.49</ele>
<time>2022-01-22T14:45:34Z</time>
</trkpt>
<trkpt lat="49.1572307" lon="2.6821025">
<ele>66.45</ele>
<time>2022-01-22T14:45:39Z</time>
</trkpt>
<trkpt lat="49.1570467" lon="2.6821967">
<ele>65.62</ele>
<time>2022-01-22T14:45:44Z</time>
</trkpt>
<trkpt lat="49.1568576" lon="2.6822703">
<ele>65.73</ele>
<time>2022-01-22T14:45:49Z</time>
</trkpt>
<trkpt lat="49.1566431" lon="2.6823001">
<ele>65.88</ele>
<time>2022-01-22T14:45:55Z</time>
</trkpt>
<trkpt lat="49.1564296" lon="2.6823323">
<ele>65.61</ele>
<time>2022-01-22T14:46:00Z</time>
</trkpt>
<trkpt lat="49.1562374" lon="2.6823546">
<ele>65.90</ele>
<time>2022-01-22T14:46:04Z</time>
</trkpt>
<trkpt lat="49.1560573" lon="2.6823610">
<ele>65.54</ele>
<time>2022-01-22T14:46:08Z</time>
</trkpt>
<trkpt lat="49.1558728" lon="2.6823792">
<ele>65.08</ele>
<time>2022-01-22T14:46:12Z</time>
</trkpt>
<trkpt lat="49.1556545" lon="2.6823857">
<ele>64.67</ele>
<time>2022-01-22T14:46:17Z</time>
</trkpt>
<trkpt lat="49.1554345" lon="2.6824151">
<ele>65.18</ele>
<time>2022-01-22T14:46:22Z</time>
</trkpt>
<trkpt lat="49.1552506" lon="2.6824541">
<ele>65.55</ele>
<time>2022-01-22T14:46:26Z</time>
</trkpt>
<trkpt lat="49.1550357" lon="2.6824921">
<ele>65.65</ele>
<time>2022-01-22T14:46:31Z</time>
</trkpt>
<trkpt lat="49.1548340" lon="2.6825433">
<ele>65.88</ele>
<time>2022-01-22T14:46:36Z</time>
</trkpt>
<trkpt lat="49.1546363" lon="2.6825978">
<ele>66.16</ele>
<time>2022-01-22T14:46:41Z</time>
</trkpt>
<trkpt lat="49.1544387" lon="2.6826565">
<ele>66.31</ele>
<time>2022-01-22T14:46:46Z</time>
</trkpt>
<trkpt lat="49.1542346" lon="2.6827043">
<ele>66.04</ele>
<time>2022-01-22T14:46:51Z</time>
</trkpt>
<trkpt lat="49.1540443" lon="2.6827430">
<ele>66.30</ele>
<time>2022-01-22T14:46:56Z</time>
</trkpt>
<trkpt lat="49.1538538" lon="2.6827871">
<ele>66.60</ele>
<time>2022-01-22T14:47:01Z</time>
</trkpt>
<trkpt lat="49.1536573" lon="2.6828310">
<ele>67.20</ele>
<time>2022-01-22T14:47:06Z</time>
</trkpt>
<trkpt lat="49.1534613" lon="2.6828664">
<ele>67.71</ele>
<time>2022-01-22T14:47:11Z</time>
</trkpt>
<trkpt lat="49.1532598" lon="2.6828999">
<ele>67.95</ele>
<time>2022-01-22T14:47:16Z</time>
</trkpt>
<trkpt lat="49.1530674" lon="2.6829101">
<ele>68.04</ele>
<time>2022-01-22T14:47:21Z</time>
</trkpt>
<trkpt lat="49.1528624" lon="2.6829172">
<ele>68.05</ele>
<time>2022-01-22T14:47:26Z</time>
</trkpt>
<trkpt lat="49.1526553" lon="2.6829228">
<ele>67.54</ele>
<time>2022-01-22T14:47:31Z</time>
</trkpt>
<trkpt lat="49.1524536" lon="2.6829176">
<ele>66.48</ele>
<time>2022-01-22T14:47:35Z</time>
</trkpt>
<trkpt lat="49.1522717" lon="2.6829128">
<ele>65.58</ele>
<time>2022-01-22T14:47:39Z</time>
</trkpt>
<trkpt lat="49.1520810" lon="2.6829160">
<ele>64.73</ele>
<time>2022-01-22T14:47:43Z</time>
</trkpt>
<trkpt lat="49.1518790" lon="2.6829356">
<ele>64.74</ele>
<time>2022-01-22T14:47:47Z</time>
</trkpt>
<trkpt lat="49.1516761" lon="2.6829298">
<ele>64.08</ele>
<time>2022-01-22T14:47:51Z</time>
</trkpt>
<trkpt lat="49.1514712" lon="2.6829145">
<ele>63.94</ele>
<time>2022-01-22T14:47:55Z</time>
</trkpt>
<trkpt lat="49.1512793" lon="2.6829235">
<ele>64.64</ele>
<time>2022-01-22T14:47:59Z</time>
</trkpt>
<trkpt lat="49.1510898" lon="2.6829101">
<ele>64.83</ele>
<time>2022-01-22T14:48:03Z</time>
</trkpt>
<trkpt lat="49.1509017" lon="2.6828896">
<ele>64.40</ele>
<time>2022-01-22T14:48:07Z</time>
</trkpt>
<trkpt lat="49.1506814" lon="2.6828884">
<ele>64.54</ele>
<time>2022-01-22T14:48:12Z</time>
</trkpt>
<trkpt lat="49.1504602" lon="2.6828895">
<ele>63.59</ele>
<time>2022-01-22T14:48:17Z</time>
</trkpt>
<trkpt lat="49.1502403" lon="2.6828844">
<ele>64.52</ele>
<time>2022-01-22T14:48:22Z</time>
</trkpt>
<trkpt lat="49.1500567" lon="2.6828808">
<ele>67.31</ele>
<time>2022-01-22T14:48:26Z</time>
</trkpt>
<trkpt lat="49.1498761" lon="2.6829047">
<ele>69.30</ele>
<time>2022-01-22T14:48:30Z</time>
</trkpt>
<trkpt lat="49.1496553" lon="2.6828984">
<ele>73.28</ele>
<time>2022-01-22T14:48:35Z</time>
</trkpt>
<trkpt lat="49.1494447" lon="2.6829074">
<ele>72.31</ele>
<time>2022-01-22T14:48:40Z</time>
</trkpt>
<trkpt lat="49.1492301" lon="2.6829125">
<ele>73.67</ele>
<time>2022-01-22T14:48:45Z</time>
</trkpt>
<trkpt lat="49.1490359" lon="2.6828985">
<ele>73.46</ele>
<time>2022-01-22T14:48:50Z</time>
</trkpt>
<trkpt lat="49.1488164" lon="2.6828714">
<ele>69.80</ele>
<time>2022-01-22T14:48:56Z</time>
</trkpt>
<trkpt lat="49.1486293" lon="2.6828606">
<ele>69.88</ele>
<time>2022-01-22T14:49:01Z</time>
</trkpt>
<trkpt lat="49.1484353" lon="2.6828688">
<ele>69.11</ele>
<time>2022-01-22T14:49:06Z</time>
</trkpt>
<trkpt lat="49.1482327" lon="2.6828734">
<ele>68.70</ele>
<time>2022-01-22T14:49:11Z</time>
</trkpt>
<trkpt lat="49.1480319" lon="2.6828581">
<ele>69.50</ele>
<time>2022-01-22T14:49:16Z</time>
</trkpt>
<trkpt lat="49.1478877" lon="2.6826621">
<ele>68.45</ele>
<time>2022-01-22T14:49:23Z</time>
</trkpt>
<trkpt lat="49.1479210" lon="2.6823918">
<ele>68.22</ele>
<time>2022-01-22T14:49:28Z</time>
</trkpt>
<trkpt lat="49.1479265" lon="2.6821028">
<ele>71.01</ele>
<time>2022-01-22T14:49:35Z</time>
</trkpt>
<trkpt lat="49.1479464" lon="2.6818143">
<ele>72.68</ele>
<time>2022-01-22T14:49:40Z</time>
</trkpt>
<trkpt lat="49.1479895" lon="2.6815069">
<ele>73.10</ele>
<time>2022-01-22T14:49:47Z</time>
</trkpt>
<trkpt lat="49.1480082" lon="2.6811839">
<ele>73.88</ele>
<time>2022-01-22T14:49:53Z</time>
</trkpt>
<trkpt lat="49.1480350" lon="2.6808884">
<ele>73.43</ele>
<time>2022-01-22T14:49:58Z</time>
</trkpt>
<trkpt lat="49.1480709" lon="2.6805418">
<ele>73.09</ele>
<time>2022-01-22T14:50:03Z</time>
</trkpt>
<trkpt lat="49.1481008" lon="2.6802562">
<ele>72.82</ele>
<time>2022-01-22T14:50:08Z</time>
</trkpt>
<trkpt lat="49.1481409" lon="2.6799385">
<ele>72.37</ele>
<time>2022-01-22T14:50:13Z</time>
</trkpt>
<trkpt lat="49.1481544" lon="2.6796560">
<ele>71.85</ele>
<time>2022-01-22T14:50:17Z</time>
</trkpt>
<trkpt lat="49.1481724" lon="2.6793821">
<ele>69.55</ele>
<time>2022-01-22T14:50:21Z</time>
</trkpt>
<trkpt lat="49.1481989" lon="2.6790738">
<ele>69.61</ele>
<time>2022-01-22T14:50:26Z</time>
</trkpt>
<trkpt lat="49.1482092" lon="2.6787573">
<ele>68.64</ele>
<time>2022-01-22T14:50:31Z</time>
</trkpt>
<trkpt lat="49.1482285" lon="2.6784454">
<ele>68.46</ele>
<time>2022-01-22T14:50:36Z</time>
</trkpt>
<trkpt lat="49.1482710" lon="2.6781098">
<ele>71.22</ele>
<time>2022-01-22T14:50:41Z</time>
</trkpt>
<trkpt lat="49.1482920" lon="2.6778133">
<ele>69.14</ele>
<time>2022-01-22T14:50:45Z</time>
</trkpt>
<trkpt lat="49.1483381" lon="2.6774926">
<ele>68.76</ele>
<time>2022-01-22T14:50:50Z</time>
</trkpt>
<trkpt lat="49.1483610" lon="2.6771719">
<ele>67.91</ele>
<time>2022-01-22T14:50:55Z</time>
</trkpt>
<trkpt lat="49.1483861" lon="2.6768791">
<ele>68.42</ele>
<time>2022-01-22T14:50:59Z</time>
</trkpt>
<trkpt lat="49.1484057" lon="2.6765973">
<ele>67.86</ele>
<time>2022-01-22T14:51:03Z</time>
</trkpt>
<trkpt lat="49.1484331" lon="2.6762507">
<ele>66.58</ele>
<time>2022-01-22T14:51:08Z</time>
</trkpt>
<trkpt lat="49.1484320" lon="2.6759614">
<ele>67.93</ele>
<time>2022-01-22T14:51:13Z</time>
</trkpt>
<trkpt lat="49.1484678" lon="2.6756772">
<ele>69.41</ele>
<time>2022-01-22T14:51:19Z</time>
</trkpt>
<trkpt lat="49.1484906" lon="2.6753849">
<ele>71.77</ele>
<time>2022-01-22T14:51:23Z</time>
</trkpt>
<trkpt lat="49.1485725" lon="2.6750854">
<ele>67.64</ele>
<time>2022-01-22T14:51:29Z</time>
</trkpt>
<trkpt lat="49.1486248" lon="2.6747906">
<ele>66.31</ele>
<time>2022-01-22T14:51:36Z</time>
</trkpt>
<trkpt lat="49.1486071" lon="2.6744754">
<ele>67.31</ele>
<time>2022-01-22T14:51:43Z</time>
</trkpt>
<trkpt lat="49.1486240" lon="2.6741541">
<ele>64.85</ele>
<time>2022-01-22T14:51:50Z</time>
</trkpt>
<trkpt lat="49.1486839" lon="2.6738548">
<ele>62.95</ele>
<time>2022-01-22T14:51:57Z</time>
</trkpt>
<trkpt lat="49.1486944" lon="2.6735476">
<ele>62.27</ele>
<time>2022-01-22T14:52:02Z</time>
</trkpt>
<trkpt lat="49.1487116" lon="2.6732241">
<ele>64.40</ele>
<time>2022-01-22T14:52:07Z</time>
</trkpt>
<trkpt lat="49.1487234" lon="2.6729271">
<ele>65.45</ele>
<time>2022-01-22T14:52:12Z</time>
</trkpt>
<trkpt lat="49.1487412" lon="2.6725913">
<ele>65.39</ele>
<time>2022-01-22T14:52:17Z</time>
</trkpt>
<trkpt lat="49.1487711" lon="2.6722828">
<ele>64.80</ele>
<time>2022-01-22T14:52:22Z</time>
</trkpt>
<trkpt lat="49.1488155" lon="2.6720050">
<ele>65.25</ele>
<time>2022-01-22T14:52:27Z</time>
</trkpt>
<trkpt lat="49.1488462" lon="2.6717123">
<ele>65.76</ele>
<time>2022-01-22T14:52:32Z</time>
</trkpt>
<trkpt lat="49.1488748" lon="2.6713981">
<ele>66.42</ele>
<time>2022-01-22T14:52:37Z</time>
</trkpt>
<trkpt lat="49.1489047" lon="2.6710966">
<ele>66.33</ele>
<time>2022-01-22T14:52:42Z</time>
</trkpt>
<trkpt lat="49.1489338" lon="2.6707932">
<ele>66.76</ele>
<time>2022-01-22T14:52:47Z</time>
</trkpt>
<trkpt lat="49.1489555" lon="2.6704701">
<ele>67.13</ele>
<time>2022-01-22T14:52:52Z</time>
</trkpt>
<trkpt lat="49.1489958" lon="2.6701326">
<ele>66.78</ele>
<time>2022-01-22T14:52:57Z</time>
</trkpt>
<trkpt lat="49.1490205" lon="2.6698079">
<ele>66.60</ele>
<time>2022-01-22T14:53:02Z</time>
</trkpt>
<trkpt lat="49.1490489" lon="2.6694981">
<ele>66.27</ele>
<time>2022-01-22T14:53:07Z</time>
</trkpt>
<trkpt lat="49.1489347" lon="2.6692657">
<ele>67.57</ele>
<time>2022-01-22T14:53:14Z</time>
</trkpt>
<trkpt lat="49.1488652" lon="2.6689956">
<ele>67.95</ele>
<time>2022-01-22T14:53:21Z</time>
</trkpt>
<trkpt lat="49.1487918" lon="2.6687295">
<ele>68.56</ele>
<time>2022-01-22T14:53:29Z</time>
</trkpt>
<trkpt lat="49.1487429" lon="2.6684646">
<ele>69.60</ele>
<time>2022-01-22T14:53:36Z</time>
</trkpt>
<trkpt lat="49.1486744" lon="2.6681981">
<ele>68.69</ele>
<time>2022-01-22T14:53:42Z</time>
</trkpt>
<trkpt lat="49.1486078" lon="2.6679335">
<ele>68.77</ele>
<time>2022-01-22T14:53:48Z</time>
</trkpt>
<trkpt lat="49.1485437" lon="2.6676424">
<ele>70.24</ele>
<time>2022-01-22T14:53:55Z</time>
</trkpt>
<trkpt lat="49.1484676" lon="2.6673852">
<ele>73.24</ele>
<time>2022-01-22T14:54:01Z</time>
</trkpt>
<trkpt lat="49.1483651" lon="2.6671543">
<ele>76.64</ele>
<time>2022-01-22T14:54:07Z</time>
</trkpt>
<trkpt lat="49.1482344" lon="2.6669113">
<ele>73.98</ele>
<time>2022-01-22T14:54:14Z</time>
</trkpt>
<trkpt lat="49.1481075" lon="2.6666920">
<ele>77.43</ele>
<time>2022-01-22T14:54:20Z</time>
</trkpt>
<trkpt lat="49.1480128" lon="2.6664446">
<ele>76.90</ele>
<time>2022-01-22T14:54:26Z</time>
</trkpt>
<trkpt lat="49.1479301" lon="2.6661719">
<ele>77.65</ele>
<time>2022-01-22T14:54:32Z</time>
</trkpt>
<trkpt lat="49.1478331" lon="2.6659196">
<ele>76.49</ele>
<time>2022-01-22T14:54:38Z</time>
</trkpt>
<trkpt lat="49.1477344" lon="2.6656434">
<ele>77.66</ele>
<time>2022-01-22T14:54:44Z</time>
</trkpt>
<trkpt lat="49.1476350" lon="2.6653831">
<ele>78.33</ele>
<time>2022-01-22T14:54:50Z</time>
</trkpt>
<trkpt lat="49.1475110" lon="2.6651332">
<ele>80.64</ele>
<time>2022-01-22T14:54:56Z</time>
</trkpt>
<trkpt lat="49.1474019" lon="2.6648999">
<ele>80.07</ele>
<time>2022-01-22T14:55:02Z</time>
</trkpt>
<trkpt lat="49.1472870" lon="2.6646590">
<ele>79.74</ele>
<time>2022-01-22T14:55:08Z</time>
</trkpt>
<trkpt lat="49.1471750" lon="2.6643938">
<ele>78.20</ele>
<time>2022-01-22T14:55:14Z</time>
</trkpt>
<trkpt lat="49.1470447" lon="2.6642021">
<ele>81.24</ele>
<time>2022-01-22T14:56:09Z</time>
</trkpt>
<trkpt lat="49.1468418" lon="2.6642056">
<ele>81.95</ele>
<time>2022-01-22T15:23:00Z</time>
</trkpt>
<trkpt lat="49.1466607" lon="2.6642384">
<ele>76.46</ele>
<time>2022-01-22T15:25:49Z</time>
</trkpt>
<trkpt lat="49.1464746" lon="2.6642491">
<ele>83.55</ele>
<time>2022-01-22T15:27:02Z</time>
</trkpt>
<trkpt lat="49.1462845" lon="2.6642396">
<ele>83.15</ele>
<time>2022-01-22T15:27:06Z</time>
</trkpt>
<trkpt lat="49.1460822" lon="2.6642289">
<ele>83.87</ele>
<time>2022-01-22T15:27:11Z</time>
</trkpt>
<trkpt lat="49.1458896" lon="2.6642266">
<ele>85.24</ele>
<time>2022-01-22T15:27:15Z</time>
</trkpt>
<trkpt lat="49.1456880" lon="2.6642121">
<ele>86.40</ele>
<time>2022-01-22T15:27:19Z</time>
</trkpt>
<trkpt lat="49.1454825" lon="2.6642020">
<ele>89.14</ele>
<time>2022-01-22T15:27:25Z</time>
</trkpt>
<trkpt lat="49.1452694" lon="2.6641864">
<ele>88.36</ele>
<time>2022-01-22T15:27:29Z</time>
</trkpt>
<trkpt lat="49.1450725" lon="2.6641900">
<ele>91.76</ele>
<time>2022-01-22T15:27:35Z</time>
</trkpt>
<trkpt lat="49.1448836" lon="2.6641807">
<ele>93.48</ele>
<time>2022-01-22T15:27:42Z</time>
</trkpt>
<trkpt lat="49.1446900" lon="2.6642036">
<ele>93.79</ele>
<time>2022-01-22T15:27:50Z</time>
</trkpt>
<trkpt lat="49.1445032" lon="2.6642145">
<ele>91.07</ele>
<time>2022-01-22T15:27:58Z</time>
</trkpt>
<trkpt lat="49.1443190" lon="2.6642978">
<ele>87.17</ele>
<time>2022-01-22T15:28:06Z</time>
</trkpt>
<trkpt lat="49.1441605" lon="2.6644380">
<ele>89.18</ele>
<time>2022-01-22T15:28:11Z</time>
</trkpt>
<trkpt lat="49.1439949" lon="2.6646165">
<ele>89.13</ele>
<time>2022-01-22T15:28:16Z</time>
</trkpt>
<trkpt lat="49.1438268" lon="2.6647554">
<ele>93.72</ele>
<time>2022-01-22T15:28:22Z</time>
</trkpt>
<trkpt lat="49.1436523" lon="2.6648748">
<ele>91.78</ele>
<time>2022-01-22T15:28:27Z</time>
</trkpt>
<trkpt lat="49.1434656" lon="2.6650460">
<ele>95.01</ele>
<time>2022-01-22T15:28:33Z</time>
</trkpt>
<trkpt lat="49.1433400" lon="2.6652552">
<ele>96.10</ele>
<time>2022-01-22T15:28:38Z</time>
</trkpt>
<trkpt lat="49.1431780" lon="2.6654723">
<ele>96.61</ele>
<time>2022-01-22T15:28:44Z</time>
</trkpt>
<trkpt lat="49.1430187" lon="2.6656844">
<ele>98.12</ele>
<time>2022-01-22T15:28:50Z</time>
</trkpt>
<trkpt lat="49.1428599" lon="2.6658795">
<ele>100.34</ele>
<time>2022-01-22T15:28:56Z</time>
</trkpt>
<trkpt lat="49.1427104" lon="2.6660722">
<ele>98.92</ele>
<time>2022-01-22T15:29:02Z</time>
</trkpt>
<trkpt lat="49.1425720" lon="2.6662902">
<ele>100.26</ele>
<time>2022-01-22T15:29:08Z</time>
</trkpt>
<trkpt lat="49.1424030" lon="2.6664428">
<ele>102.46</ele>
<time>2022-01-22T15:29:14Z</time>
</trkpt>
<trkpt lat="49.1422513" lon="2.6666362">
<ele>102.42</ele>
<time>2022-01-22T15:29:21Z</time>
</trkpt>
<trkpt lat="49.1421238" lon="2.6668746">
<ele>106.25</ele>
<time>2022-01-22T15:29:28Z</time>
</trkpt>
<trkpt lat="49.1420053" lon="2.6671092">
<ele>109.09</ele>
<time>2022-01-22T15:29:34Z</time>
</trkpt>
<trkpt lat="49.1418734" lon="2.6673076">
<ele>107.50</ele>
<time>2022-01-22T15:29:42Z</time>
</trkpt>
<trkpt lat="49.1417432" lon="2.6675069">
<ele>106.47</ele>
<time>2022-01-22T15:30:03Z</time>
</trkpt>
<trkpt lat="49.1415882" lon="2.6677279">
<ele>108.20</ele>
<time>2022-01-22T15:30:08Z</time>
</trkpt>
<trkpt lat="49.1414877" lon="2.6679739">
<ele>109.03</ele>
<time>2022-01-22T15:30:13Z</time>
</trkpt>
<trkpt lat="49.1413869" lon="2.6682230">
<ele>111.54</ele>
<time>2022-01-22T15:30:19Z</time>
</trkpt>
<trkpt lat="49.1412986" lon="2.6684653">
<ele>112.31</ele>
<time>2022-01-22T15:30:24Z</time>
</trkpt>
<trkpt lat="49.1411743" lon="2.6687337">
<ele>113.29</ele>
<time>2022-01-22T15:30:30Z</time>
</trkpt>
<trkpt lat="49.1410492" lon="2.6689648">
<ele>113.07</ele>
<time>2022-01-22T15:30:35Z</time>
</trkpt>
<trkpt lat="49.1409123" lon="2.6691846">
<ele>111.64</ele>
<time>2022-01-22T15:30:40Z</time>
</trkpt>
<trkpt lat="49.1407369" lon="2.6693687">
<ele>109.96</ele>
<time>2022-01-22T15:30:45Z</time>
</trkpt>
<trkpt lat="49.1405710" lon="2.6695687">
<ele>111.92</ele>
<time>2022-01-22T15:30:51Z</time>
</trkpt>
<trkpt lat="49.1404139" lon="2.6697289">
<ele>112.89</ele>
<time>2022-01-22T15:30:55Z</time>
</trkpt>
<trkpt lat="49.1402491" lon="2.6699073">
<ele>114.43</ele>
<time>2022-01-22T15:30:59Z</time>
</trkpt>
<trkpt lat="49.1401030" lon="2.6700930">
<ele>112.94</ele>
<time>2022-01-22T15:31:03Z</time>
</trkpt>
<trkpt lat="49.1399325" lon="2.6702038">
<ele>113.60</ele>
<time>2022-01-22T15:31:07Z</time>
</trkpt>
<trkpt lat="49.1397519" lon="2.6703196">
<ele>114.01</ele>
<time>2022-01-22T15:31:13Z</time>
</trkpt>
<trkpt lat="49.1395909" lon="2.6704476">
<ele>114.54</ele>
<time>2022-01-22T15:31:17Z</time>
</trkpt>
<trkpt lat="49.1394233" lon="2.6705599">
<ele>114.10</ele>
<time>2022-01-22T15:31:21Z</time>
</trkpt>
<trkpt lat="49.1392512" lon="2.6706437">
<ele>115.13</ele>
<time>2022-01-22T15:31:25Z</time>
</trkpt>
<trkpt lat="49.1390559" lon="2.6707227">
<ele>115.17</ele>
<time>2022-01-22T15:31:30Z</time>
</trkpt>
<trkpt lat="49.1388715" lon="2.6708681">
<ele>114.95</ele>
<time>2022-01-22T15:31:35Z</time>
</trkpt>
<trkpt lat="49.1387032" lon="2.6709903">
<ele>115.56</ele>
<time>2022-01-22T15:31:39Z</time>
</trkpt>
<trkpt lat="49.1385172" lon="2.6711031">
<ele>114.34</ele>
<time>2022-01-22T15:31:44Z</time>
</trkpt>
<trkpt lat="49.1383465" lon="2.6712435">
<ele>114.35</ele>
<time>2022-01-22T15:31:49Z</time>
</trkpt>
<trkpt lat="49.1381422" lon="2.6713554">
<ele>113.72</ele>
<time>2022-01-22T15:31:54Z</time>
</trkpt>
<trkpt lat="49.1379639" lon="2.6714584">
<ele>114.60</ele>
<time>2022-01-22T15:31:58Z</time>
</trkpt>
<trkpt lat="49.1377942" lon="2.6715967">
<ele>112.77</ele>
<time>2022-01-22T15:32:03Z</time>
</trkpt>
<trkpt lat="49.1376097" lon="2.6717319">
<ele>115.44</ele>
<time>2022-01-22T15:32:08Z</time>
</trkpt>
<trkpt lat="49.1374344" lon="2.6718565">
<ele>116.27</ele>
<time>2022-01-22T15:32:13Z</time>
</trkpt>
<trkpt lat="49.1372834" lon="2.6720149">
<ele>116.04</ele>
<time>2022-01-22T15:32:17Z</time>
</trkpt>
<trkpt lat="49.1371303" lon="2.6722450">
<ele>115.32</ele>
<time>2022-01-22T15:32:22Z</time>
</trkpt>
<trkpt lat="49.1369609" lon="2.6723896">
<ele>114.54</ele>
<time>2022-01-22T15:32:27Z</time>
</trkpt>
<trkpt lat="49.1367948" lon="2.6726015">
<ele>115.57</ele>
<time>2022-01-22T15:32:32Z</time>
</trkpt>
<trkpt lat="49.1366136" lon="2.6727634">
<ele>115.01</ele>
<time>2022-01-22T15:32:36Z</time>
</trkpt>
<trkpt lat="49.1364331" lon="2.6729874">
<ele>111.88</ele>
<time>2022-01-22T15:32:40Z</time>
</trkpt>
<trkpt lat="49.1362696" lon="2.6732034">
<ele>111.65</ele>
<time>2022-01-22T15:32:44Z</time>
</trkpt>
<trkpt lat="49.1361076" lon="2.6733685">
<ele>110.83</ele>
<time>2022-01-22T15:32:48Z</time>
</trkpt>
<trkpt lat="49.1359186" lon="2.6735221">
<ele>109.76</ele>
<time>2022-01-22T15:32:54Z</time>
</trkpt>
<trkpt lat="49.1357723" lon="2.6737997">
<ele>109.78</ele>
<time>2022-01-22T15:32:58Z</time>
</trkpt>
<trkpt lat="49.1356098" lon="2.6740278">
<ele>109.79</ele>
<time>2022-01-22T15:33:02Z</time>
</trkpt>
<trkpt lat="49.1354806" lon="2.6742397">
<ele>107.30</ele>
<time>2022-01-22T15:33:07Z</time>
</trkpt>
<trkpt lat="49.1353369" lon="2.6744601">
<ele>106.94</ele>
<time>2022-01-22T15:33:11Z</time>
</trkpt>
<trkpt lat="49.1351760" lon="2.6746569">
<ele>106.96</ele>
<time>2022-01-22T15:33:16Z</time>
</trkpt>
<trkpt lat="49.1350024" lon="2.6748747">
<ele>106.72</ele>
<time>2022-01-22T15:33:21Z</time>
</trkpt>
<trkpt lat="49.1348472" lon="2.6750783">
<ele>106.55</ele>
<time>2022-01-22T15:33:26Z</time>
</trkpt>
<trkpt lat="49.1346889" lon="2.6752452">
<ele>106.14</ele>
<time>2022-01-22T15:33:31Z</time>
</trkpt>
<trkpt lat="49.1345401" lon="2.6754265">
<ele>107.01</ele>
<time>2022-01-22T15:33:35Z</time>
</trkpt>
<trkpt lat="49.1343751" lon="2.6755379">
<ele>107.15</ele>
<time>2022-01-22T15:33:40Z</time>
</trkpt>
<trkpt lat="49.1341818" lon="2.6756771">
<ele>105.85</ele>
<time>2022-01-22T15:33:44Z</time>
</trkpt>
<trkpt lat="49.1340134" lon="2.6758093">
<ele>107.67</ele>
<time>2022-01-22T15:33:48Z</time>
</trkpt>
<trkpt lat="49.1338425" lon="2.6759321">
<ele>108.67</ele>
<time>2022-01-22T15:33:51Z</time>
</trkpt>
<trkpt lat="49.1336718" lon="2.6760702">
<ele>106.61</ele>
<time>2022-01-22T15:33:54Z</time>
</trkpt>
<trkpt lat="49.1334751" lon="2.6762047">
<ele>105.45</ele>
<time>2022-01-22T15:33:57Z</time>
</trkpt>
<trkpt lat="49.1332724" lon="2.6762465">
<ele>104.24</ele>
<time>2022-01-22T15:34:00Z</time>
</trkpt>
<trkpt lat="49.1330664" lon="2.6763694">
<ele>103.28</ele>
<time>2022-01-22T15:34:03Z</time>
</trkpt>
<trkpt lat="49.1328868" lon="2.6764519">
<ele>103.17</ele>
<time>2022-01-22T15:34:06Z</time>
</trkpt>
<trkpt lat="49.1326916" lon="2.6765480">
<ele>102.11</ele>
<time>2022-01-22T15:34:09Z</time>
</trkpt>
<trkpt lat="49.1324979" lon="2.6765972">
<ele>100.21</ele>
<time>2022-01-22T15:34:12Z</time>
</trkpt>
<trkpt lat="49.1323030" lon="2.6767045">
<ele>99.67</ele>
<time>2022-01-22T15:34:15Z</time>
</trkpt>
<trkpt lat="49.1321103" lon="2.6767731">
<ele>97.44</ele>
<time>2022-01-22T15:34:18Z</time>
</trkpt>
<trkpt lat="49.1319080" lon="2.6768308">
<ele>96.11</ele>
<time>2022-01-22T15:34:21Z</time>
</trkpt>
<trkpt lat="49.1317124" lon="2.6769897">
<ele>95.41</ele>
<time>2022-01-22T15:34:24Z</time>
</trkpt>
<trkpt lat="49.1315438" lon="2.6771952">
<ele>92.40</ele>
<time>2022-01-22T15:34:27Z</time>
</trkpt>
<trkpt lat="49.1313908" lon="2.6774352">
<ele>90.39</ele>
<time>2022-01-22T15:34:30Z</time>
</trkpt>
<trkpt lat="49.1312451" lon="2.6776759">
<ele>89.44</ele>
<time>2022-01-22T15:34:33Z</time>
</trkpt>
<trkpt lat="49.1311103" lon="2.6778913">
<ele>88.42</ele>
<time>2022-01-22T15:34:36Z</time>
</trkpt>
<trkpt lat="49.1309736" lon="2.6781600">
<ele>86.46</ele>
<time>2022-01-22T15:34:40Z</time>
</trkpt>
<trkpt lat="49.1308260" lon="2.6783571">
<ele>87.30</ele>
<time>2022-01-22T15:34:44Z</time>
</trkpt>
<trkpt lat="49.1306671" lon="2.6786068">
<ele>86.79</ele>
<time>2022-01-22T15:34:49Z</time>
</trkpt>
<trkpt lat="49.1305270" lon="2.6788519">
<ele>84.78</ele>
<time>2022-01-22T15:34:54Z</time>
</trkpt>
<trkpt lat="49.1304055" lon="2.6790946">
<ele>85.90</ele>
<time>2022-01-22T15:34:59Z</time>
</trkpt>
<trkpt lat="49.1302949" lon="2.6793268">
<ele>86.30</ele>
<time>2022-01-22T15:35:04Z</time>
</trkpt>
<trkpt lat="49.1301617" lon="2.6795341">
<ele>87.73</ele>
<time>2022-01-22T15:35:09Z</time>
</trkpt>
<trkpt lat="49.1300139" lon="2.6797677">
<ele>87.59</ele>
<time>2022-01-22T15:35:15Z</time>
</trkpt>
<trkpt lat="49.1298523" lon="2.6799538">
<ele>85.31</ele>
<time>2022-01-22T15:35:21Z</time>
</trkpt>
<trkpt lat="49.1297341" lon="2.6801873">
<ele>85.20</ele>
<time>2022-01-22T15:35:27Z</time>
</trkpt>
<trkpt lat="49.1295929" lon="2.6803885">
<ele>85.26</ele>
<time>2022-01-22T15:35:33Z</time>
</trkpt>
<trkpt lat="49.1294192" lon="2.6805318">
<ele>86.11</ele>
<time>2022-01-22T15:35:39Z</time>
</trkpt>
<trkpt lat="49.1292270" lon="2.6806231">
<ele>88.40</ele>
<time>2022-01-22T15:35:45Z</time>
</trkpt>
<trkpt lat="49.1290470" lon="2.6806413">
<ele>87.53</ele>
<time>2022-01-22T15:35:50Z</time>
</trkpt>
<trkpt lat="49.1288673" lon="2.6806583">
<ele>87.37</ele>
<time>2022-01-22T15:35:55Z</time>
</trkpt>
<trkpt lat="49.1286489" lon="2.6806827">
<ele>90.14</ele>
<time>2022-01-22T15:36:01Z</time>
</trkpt>
<trkpt lat="49.1284478" lon="2.6807347">
<ele>88.13</ele>
<time>2022-01-22T15:36:07Z</time>
</trkpt>
<trkpt lat="49.1283589" lon="2.6810168">
<ele>89.49</ele>
<time>2022-01-22T15:36:13Z</time>
</trkpt>
<trkpt lat="49.1283375" lon="2.6812998">
<ele>91.21</ele>
<time>2022-01-22T15:36:19Z</time>
</trkpt>
<trkpt lat="49.1282705" lon="2.6815879">
<ele>96.96</ele>
<time>2022-01-22T15:36:25Z</time>
</trkpt>
<trkpt lat="49.1281948" lon="2.6818890">
<ele>98.71</ele>
<time>2022-01-22T15:36:31Z</time>
</trkpt>
<trkpt lat="49.1281431" lon="2.6822112">
<ele>95.49</ele>
<time>2022-01-22T15:36:37Z</time>
</trkpt>
<trkpt lat="49.1281042" lon="2.6825191">
<ele>96.56</ele>
<time>2022-01-22T15:36:42Z</time>
</trkpt>
<trkpt lat="49.1280810" lon="2.6828528">
<ele>95.28</ele>
<time>2022-01-22T15:36:47Z</time>
</trkpt>
<trkpt lat="49.1280822" lon="2.6832035">
<ele>95.05</ele>
<time>2022-01-22T15:36:51Z</time>
</trkpt>
<trkpt lat="49.1281057" lon="2.6835566">
<ele>93.13</ele>
<time>2022-01-22T15:36:55Z</time>
</trkpt>
<trkpt lat="49.1280730" lon="2.6838637">
<ele>89.84</ele>
<time>2022-01-22T15:36:58Z</time>
</trkpt>
<trkpt lat="49.1280410" lon="2.6841614">
<ele>89.47</ele>
<time>2022-01-22T15:37:01Z</time>
</trkpt>
<trkpt lat="49.1280365" lon="2.6844763">
<ele>89.73</ele>
<time>2022-01-22T15:37:04Z</time>
</trkpt>
<trkpt lat="49.1280709" lon="2.6847654">
<ele>90.22</ele>
<time>2022-01-22T15:37:07Z</time>
</trkpt>
<trkpt lat="49.1280979" lon="2.6850550">
<ele>90.15</ele>
<time>2022-01-22T15:37:10Z</time>
</trkpt>
<trkpt lat="49.1281126" lon="2.6853472">
<ele>91.29</ele>
<time>2022-01-22T15:37:13Z</time>
</trkpt>
<trkpt lat="49.1281882" lon="2.6856319">
<ele>90.99</ele>
<time>2022-01-22T15:37:18Z</time>
</trkpt>
<trkpt lat="49.1282311" lon="2.6859225">
<ele>90.11</ele>
<time>2022-01-22T15:37:32Z</time>
</trkpt>
<trkpt lat="49.1282626" lon="2.6862213">
<ele>90.29</ele>
<time>2022-01-22T15:37:38Z</time>
</trkpt>
<trkpt lat="49.1281870" lon="2.6864928">
<ele>92.37</ele>
<time>2022-01-22T15:37:46Z</time>
</trkpt>
<trkpt lat="49.1281157" lon="2.6867889">
<ele>93.37</ele>
<time>2022-01-22T15:37:54Z</time>
</trkpt>
<trkpt lat="49.1280405" lon="2.6870799">
<ele>93.27</ele>
<time>2022-01-22T15:38:01Z</time>
</trkpt>
<trkpt lat="49.1279923" lon="2.6873953">
<ele>92.06</ele>
<time>2022-01-22T15:38:07Z</time>
</trkpt>
<trkpt lat="49.1279167" lon="2.6877200">
<ele>89.36</ele>
<time>2022-01-22T15:38:12Z</time>
</trkpt>
<trkpt lat="49.1278489" lon="2.6880237">
<ele>87.39</ele>
<time>2022-01-22T15:38:16Z</time>
</trkpt>
<trkpt lat="49.1277726" lon="2.6883220">
<ele>85.45</ele>
<time>2022-01-22T15:38:21Z</time>
</trkpt>
<trkpt lat="49.1276800" lon="2.6886051">
<ele>84.03</ele>
<time>2022-01-22T15:38:26Z</time>
</trkpt>
<trkpt lat="49.1276041" lon="2.6888817">
<ele>81.80</ele>
<time>2022-01-22T15:38:31Z</time>
</trkpt>
<trkpt lat="49.1275039" lon="2.6891200">
<ele>79.88</ele>
<time>2022-01-22T15:38:37Z</time>
</trkpt>
<trkpt lat="49.1274362" lon="2.6894122">
<ele>79.16</ele>
<time>2022-01-22T15:38:45Z</time>
</trkpt>
<trkpt lat="49.1273847" lon="2.6897397">
<ele>78.30</ele>
<time>2022-01-22T15:38:50Z</time>
</trkpt>
<trkpt lat="49.1274377" lon="2.6900343">
<ele>77.39</ele>
<time>2022-01-22T15:38:56Z</time>
</trkpt>
<trkpt lat="49.1272679" lon="2.6902335">
<ele>79.54</ele>
<time>2022-01-22T15:45:57Z</time>
</trkpt>
<trkpt lat="49.1270849" lon="2.6903480">
<ele>81.00</ele>
<time>2022-01-22T15:46:02Z</time>
</trkpt>
<trkpt lat="49.1268913" lon="2.6904824">
<ele>82.90</ele>
<time>2022-01-22T15:46:06Z</time>
</trkpt>
<trkpt lat="49.1267060" lon="2.6906028">
<ele>84.01</ele>
<time>2022-01-22T15:46:10Z</time>
</trkpt>
<trkpt lat="49.1265564" lon="2.6908022">
<ele>80.62</ele>
<time>2022-01-22T15:46:15Z</time>
</trkpt>
<trkpt lat="49.1264450" lon="2.6911120">
<ele>80.05</ele>
<time>2022-01-22T15:46:19Z</time>
</trkpt>
<trkpt lat="49.1262993" lon="2.6913859">
<ele>77.63</ele>
<time>2022-01-22T15:46:23Z</time>
</trkpt>
<trkpt lat="49.1261359" lon="2.6915884">
<ele>77.51</ele>
<time>2022-01-22T15:46:27Z</time>
</trkpt>
<trkpt lat="49.1259881" lon="2.6917944">
<ele>77.67</ele>
<time>2022-01-22T15:46:31Z</time>
</trkpt>
<trkpt lat="49.1258377" lon="2.6919594">
<ele>77.41</ele>
<time>2022-01-22T15:46:35Z</time>
</trkpt>
<trkpt lat="49.1256980" lon="2.6921329">
<ele>76.38</ele>
<time>2022-01-22T15:46:38Z</time>
</trkpt>
<trkpt lat="49.1255840" lon="2.6923561">
<ele>75.36</ele>
<time>2022-01-22T15:46:41Z</time>
</trkpt>
<trkpt lat="49.1255386" lon="2.6926292">
<ele>75.76</ele>
<time>2022-01-22T15:46:44Z</time>
</trkpt>
<trkpt lat="49.1255605" lon="2.6929684">
<ele>76.11</ele>
<time>2022-01-22T15:46:48Z</time>
</trkpt>
<trkpt lat="49.1254292" lon="2.6931749">
<ele>76.06</ele>
<time>2022-01-22T15:46:54Z</time>
</trkpt>
<trkpt lat="49.1252427" lon="2.6932243">
<ele>76.25</ele>
<time>2022-01-22T15:47:03Z</time>
</trkpt>
</trkseg>
</trk>
</gpx>
